Observation data for Estelline on 07/19/2019      Previous  Date       Current Mesonet Observations  Soil Data  Daily Summary Page  Observations in Plain Language
KES1 190500Z 15010KT 31/19 A2984 RMK A01 T03130185  RH  047%=      5-min Rain = 0
KES1 190501Z 15011KT 31/19 A2984 RMK A01 T03120185  RH  047%=      5-min Rain = 0
KES1 190502Z 15010KT 31/19 A2984 RMK A01 T03120185  RH  047%=      5-min Rain = 0
KES1 190503Z 16010KT 31/19 A2984 RMK A01 T03120185  RH  047%=      5-min Rain = 0
KES1 190504Z 15010KT 31/19 A2984 RMK A01 T03120185  RH  047%=      5-min Rain = 0
KES1 190505Z 15009KT 31/19 A2984 RMK A01 T03120185  RH  047%=      5-min Rain = 0
KES1 190506Z 16011KT 31/19 A2984 RMK A01 T03120185  RH  047%=      5-min Rain = 0
KES1 190507Z 15010KT 31/19 A2984 RMK A01 T03110185  RH  047%=      5-min Rain = 0
KES1 190508Z 16009KT 31/19 A2984 RMK A01 T03110185  RH  047%=      5-min Rain = 0
KES1 190509Z 15008G13KT 31/19 A2984 RMK A01 T03100185  RH  047%=      5-min Rain = 0
KES1 190510Z 15008KT 31/19 A2984 RMK A01 T03090185  RH  047%=      5-min Rain = 0
KES1 190511Z 15010KT 31/19 A2984 RMK A01 T03090185  RH  048%=      5-min Rain = 0
KES1 190512Z 16011KT 31/19 A2984 RMK A01 T03090185  RH  048%=      5-min Rain = 0
KES1 190513Z 15009KT 31/19 A2984 RMK A01 T03090185  RH  048%=      5-min Rain = 0
KES1 190514Z 15009G14KT 31/19 A2984 RMK A01 T03090185  RH  048%=      5-min Rain = 0
KES1 190515Z 15011KT 31/18 A2984 RMK A01 T03080184  RH  048%=      5-min Rain = 0
KES1 190516Z 16009KT 31/19 A2984 RMK A01 T03080185  RH  048%=      5-min Rain = 0
KES1 190517Z 15010G15KT 31/19 A2984 RMK A01 T03080185  RH  048%=      5-min Rain = 0
KES1 190518Z 16011KT 31/19 A2984 RMK A01 T03080185  RH  048%=      5-min Rain = 0
KES1 190519Z 16010KT 31/18 A2984 RMK A01 T03070184  RH  048%=      5-min Rain = 0
KES1 190520Z 16008KT 31/18 A2984 RMK A01 T03070184  RH  048%=      5-min Rain = 0
KES1 190521Z 15010KT 31/18 A2984 RMK A01 T03060184  RH  048%=      5-min Rain = 0
KES1 190522Z 15010KT 31/18 A2984 RMK A01 T03060184  RH  048%=      5-min Rain = 0
KES1 190523Z 15009KT 31/18 A2984 RMK A01 T03060184  RH  048%=      5-min Rain = 0
KES1 190524Z 16008KT 31/18 A2984 RMK A01 T03050184  RH  048%=      5-min Rain = 0
KES1 190525Z 16011KT 31/18 A2984 RMK A01 T03050184  RH  049%=      5-min Rain = 0
KES1 190526Z 15010KT 30/18 A2984 RMK A01 T03040184  RH  049%=      5-min Rain = 0
KES1 190527Z 15010KT 30/18 A2985 RMK A01 T03040184  RH  049%=      5-min Rain = 0
KES1 190528Z 16010KT 30/18 A2984 RMK A01 T03040184  RH  048%=      5-min Rain = 0
KES1 190529Z 16009KT 30/18 A2985 RMK A01 T03040184  RH  048%=      5-min Rain = 0
KES1 190530Z 15009KT 30/18 A2985 RMK A01 T03040184  RH  049%=      5-min Rain = 0
KES1 190531Z 15010KT 30/18 A2985 RMK A01 T03040184  RH  049%=      5-min Rain = 0
KES1 190532Z 15010KT 30/18 A2985 RMK A01 T03040184  RH  049%=      5-min Rain = 0
KES1 190533Z 16010KT 30/18 A2985 RMK A01 T03030184  RH  049%=      5-min Rain = 0
KES1 190534Z 15010KT 30/18 A2985 RMK A01 T03030184  RH  049%=      5-min Rain = 0
KES1 190535Z 16009KT 30/18 A2985 RMK A01 T03030183  RH  049%=      5-min Rain = 0
KES1 190536Z 16011KT 30/18 A2985 RMK A01 T03030184  RH  049%=      5-min Rain = 0
KES1 190537Z 15008KT 30/18 A2985 RMK A01 T03030184  RH  049%=      5-min Rain = 0
KES1 190538Z 16010KT 30/18 A2985 RMK A01 T03030184  RH  049%=      5-min Rain = 0
KES1 190539Z 15011KT 30/18 A2985 RMK A01 T03020183  RH  049%=      5-min Rain = 0
KES1 190540Z 15008KT 30/18 A2985 RMK A01 T03020183  RH  049%=      5-min Rain = 0
KES1 190541Z 16008KT 30/18 A2985 RMK A01 T03020184  RH  049%=      5-min Rain = 0
KES1 190542Z 15011KT 30/18 A2985 RMK A01 T03010183  RH  049%=      5-min Rain = 0
KES1 190543Z 15011KT 30/18 A2985 RMK A01 T03010184  RH  049%=      5-min Rain = 0
KES1 190544Z 15011KT 30/18 A2985 RMK A01 T03010183  RH  049%=      5-min Rain = 0
KES1 190545Z 15010KT 30/18 A2985 RMK A01 T03010183  RH  049%=      5-min Rain = 0
KES1 190546Z 15010KT 30/18 A2985 RMK A01 T03010183  RH  049%=      5-min Rain = 0
KES1 190547Z 15010KT 30/18 A2985 RMK A01 T03010183  RH  049%=      5-min Rain = 0
KES1 190548Z 16010KT 30/18 A2985 RMK A01 T03010183  RH  049%=      5-min Rain = 0
KES1 190549Z 16010KT 30/18 A2985 RMK A01 T03010183  RH  049%=      5-min Rain = 0
KES1 190550Z 15009KT 30/18 A2985 RMK A01 T03010183  RH  049%=      5-min Rain = 0
KES1 190551Z 16009KT 30/18 A2985 RMK A01 T03000183  RH  050%=      5-min Rain = 0
KES1 190552Z 16010KT 30/18 A2985 RMK A01 T03000183  RH  050%=      5-min Rain = 0
KES1 190553Z 16009KT 30/18 A2985 RMK A01 T03000184  RH  050%=      5-min Rain = 0
KES1 190554Z 16010KT 30/18 A2985 RMK A01 T03000183  RH  050%=      5-min Rain = 0
KES1 190555Z 16011KT 30/18 A2985 RMK A01 T03000183  RH  049%=      5-min Rain = 0
KES1 190556Z 16012KT 30/18 A2985 RMK A01 T03000182  RH  049%=      5-min Rain = 0
KES1 190557Z 16010KT 30/18 A2985 RMK A01 T03010183  RH  049%=      5-min Rain = 0
KES1 190558Z 16010KT 30/18 A2985 RMK A01 T03010183  RH  049%=      5-min Rain = 0
KES1 190559Z 16011KT 30/18 A2985 RMK A01 T03010183  RH  049%=      5-min Rain = 0
KES1 190600Z 16011KT 30/18 A2985 RMK A01 T03010183  RH  049%=      5-min Rain = 0
KES1 190601Z 16010KT 30/18 A2985 RMK A01 T03010182  RH  049%=      5-min Rain = 0
KES1 190602Z 16010G15KT 30/18 A2985 RMK A01 T03010182  RH  049%=      5-min Rain = 0
KES1 190603Z 16010G15KT 30/18 A2985 RMK A01 T03010182  RH  049%=      5-min Rain = 0
KES1 190604Z 16012KT 30/18 A2985 RMK A01 T03010182  RH  049%=      5-min Rain = 0
KES1 190605Z 16012KT 30/18 A2985 RMK A01 T03010182  RH  049%=      5-min Rain = 0
KES1 190606Z 16011KT 30/18 A2985 RMK A01 T03010182  RH  049%=      5-min Rain = 0
KES1 190607Z 16011KT 30/18 A2985 RMK A01 T03010182  RH  049%=      5-min Rain = 0
KES1 190608Z 16011KT 30/18 A2985 RMK A01 T03010182  RH  049%=      5-min Rain = 0
KES1 190609Z 16010KT 30/18 A2985 RMK A01 T03010182  RH  049%=      5-min Rain = 0
KES1 190610Z 16011KT 30/18 A2985 RMK A01 T03010182  RH  049%=      5-min Rain = 0
KES1 190611Z 16011KT 30/18 A2985 RMK A01 T03000181  RH  049%=      5-min Rain = 0
KES1 190612Z 16010KT 30/18 A2985 RMK A01 T03010182  RH  049%=      5-min Rain = 0
KES1 190613Z 16010KT 30/18 A2985 RMK A01 T03000182  RH  049%=      5-min Rain = 0
KES1 190614Z 16011KT 30/18 A2985 RMK A01 T03000181  RH  049%=      5-min Rain = 0
KES1 190615Z 16012KT 30/18 A2985 RMK A01 T03000181  RH  049%=      5-min Rain = 0
KES1 190616Z 16011KT 30/18 A2985 RMK A01 T03000181  RH  049%=      5-min Rain = 0
KES1 190617Z 16011KT 30/18 A2985 RMK A01 T03000181  RH  049%=      5-min Rain = 0
KES1 190618Z 16012KT 30/18 A2985 RMK A01 T03000181  RH  049%=      5-min Rain = 0
KES1 190619Z 16012KT 30/18 A2985 RMK A01 T03000181  RH  049%=      5-min Rain = 0
KES1 190620Z 17012KT 30/18 A2985 RMK A01 T03000181  RH  049%=      5-min Rain = 0
KES1 190621Z 16009KT 30/18 A2985 RMK A01 T03000181  RH  049%=      5-min Rain = 0
KES1 190622Z 16013KT 30/18 A2985 RMK A01 T03000181  RH  049%=      5-min Rain = 0
KES1 190623Z 16011KT 30/18 A2985 RMK A01 T02990181  RH  049%=      5-min Rain = 0
KES1 190624Z 17011KT 30/18 A2985 RMK A01 T02990180  RH  049%=      5-min Rain = 0
KES1 190625Z 17009KT 30/18 A2985 RMK A01 T02990180  RH  049%=      5-min Rain = 0
KES1 190626Z 16011KT 30/18 A2985 RMK A01 T02990181  RH  049%=      5-min Rain = 0
KES1 190627Z 16012KT 30/18 A2985 RMK A01 T02990180  RH  049%=      5-min Rain = 0
KES1 190628Z 16011KT 30/18 A2985 RMK A01 T02990180  RH  049%=      5-min Rain = 0
KES1 190629Z 17010G15KT 30/18 A2985 RMK A01 T02990180  RH  049%=      5-min Rain = 0
KES1 190630Z 17010KT 30/18 A2985 RMK A01 T02990180  RH  049%=      5-min Rain = 0
KES1 190631Z 16012KT 30/18 A2985 RMK A01 T02990180  RH  049%=      5-min Rain = 0
KES1 190632Z 17011G16KT 30/18 A2985 RMK A01 T02990180  RH  049%=      5-min Rain = 0
KES1 190633Z 16013G18KT 30/18 A2985 RMK A01 T02990179  RH  049%=      5-min Rain = 0
KES1 190634Z 17012KT 30/18 A2985 RMK A01 T02990179  RH  049%=      5-min Rain = 0
KES1 190635Z 17010G15KT 30/18 A2985 RMK A01 T02990179  RH  048%=      5-min Rain = 0
KES1 190636Z 17012KT 30/18 A2985 RMK A01 T02990179  RH  048%=      5-min Rain = 0
KES1 190637Z 17012KT 30/18 A2985 RMK A01 T02990179  RH  048%=      5-min Rain = 0
KES1 190638Z 17011KT 30/18 A2985 RMK A01 T02990179  RH  048%=      5-min Rain = 0
KES1 190639Z 16012KT 30/18 A2985 RMK A01 T02990178  RH  048%=      5-min Rain = 0
KES1 190640Z 17011KT 30/18 A2985 RMK A01 T02990179  RH  048%=      5-min Rain = 0
KES1 190641Z 17011KT 30/18 A2985 RMK A01 T02990178  RH  048%=      5-min Rain = 0
KES1 190642Z 16012KT 30/18 A2985 RMK A01 T02980178  RH  048%=      5-min Rain = 0
KES1 190643Z 16012KT 30/18 A2985 RMK A01 T02980178  RH  048%=      5-min Rain = 0
KES1 190644Z 16012KT 30/18 A2985 RMK A01 T02980178  RH  048%=      5-min Rain = 0
KES1 190645Z 16010KT 30/18 A2985 RMK A01 T02980178  RH  048%=      5-min Rain = 0
KES1 190646Z 17010KT 30/18 A2985 RMK A01 T02980178  RH  048%=      5-min Rain = 0
KES1 190647Z 16012KT 30/18 A2985 RMK A01 T02980177  RH  048%=      5-min Rain = 0
KES1 190648Z 16012KT 30/18 A2985 RMK A01 T02970177  RH  048%=      5-min Rain = 0
KES1 190649Z 17011KT 30/18 A2985 RMK A01 T02970177  RH  048%=      5-min Rain = 0
KES1 190650Z 17011KT 30/18 A2985 RMK A01 T02980178  RH  048%=      5-min Rain = 0
KES1 190651Z 16011KT 30/18 A2985 RMK A01 T02970177  RH  049%=      5-min Rain = 0
KES1 190652Z 16012G17KT 30/18 A2985 RMK A01 T02970177  RH  049%=      5-min Rain = 0
KES1 190653Z 17011KT 30/18 A2985 RMK A01 T02970177  RH  049%=      5-min Rain = 0
KES1 190654Z 16012KT 30/18 A2985 RMK A01 T02970177  RH  049%=      5-min Rain = 0
KES1 190655Z 16012KT 30/18 A2985 RMK A01 T02970177  RH  049%=      5-min Rain = 0
KES1 190656Z 16012KT 30/18 A2985 RMK A01 T02970177  RH  049%=      5-min Rain = 0
KES1 190657Z 17011KT 30/18 A2985 RMK A01 T02970177  RH  048%=      5-min Rain = 0
KES1 190658Z 16012KT 30/18 A2985 RMK A01 T02960176  RH  049%=      5-min Rain = 0
KES1 190659Z 16011KT 30/18 A2985 RMK A01 T02960176  RH  049%=      5-min Rain = 0
KES1 190700Z 16012KT 30/18 A2985 RMK A01 T02960176  RH  049%=      5-min Rain = 0
KES1 190701Z 17011KT 30/18 A2985 RMK A01 T02960176  RH  049%=      5-min Rain = 0
KES1 190702Z 16012KT 30/18 A2985 RMK A01 T02960176  RH  049%=      5-min Rain = 0
KES1 190703Z 17011KT 30/18 A2985 RMK A01 T02960176  RH  049%=      5-min Rain = 0
KES1 190704Z 16010KT 30/18 A2985 RMK A01 T02960176  RH  049%=      5-min Rain = 0
KES1 190705Z 17012KT 30/18 A2985 RMK A01 T02950176  RH  049%=      5-min Rain = 0
KES1 190706Z 16011KT 30/18 A2985 RMK A01 T02950176  RH  049%=      5-min Rain = 0
KES1 190707Z 16011KT 29/18 A2985 RMK A01 T02940176  RH  049%=      5-min Rain = 0
KES1 190708Z 17011KT 29/18 A2985 RMK A01 T02940176  RH  049%=      5-min Rain = 0
KES1 190709Z 16012KT 29/18 A2985 RMK A01 T02940175  RH  049%=      5-min Rain = 0
KES1 190710Z 17012KT 29/18 A2985 RMK A01 T02940176  RH  049%=      5-min Rain = 0
KES1 190711Z 16012KT 29/18 A2985 RMK A01 T02940175  RH  049%=      5-min Rain = 0
KES1 190712Z 16012KT 29/18 A2985 RMK A01 T02940175  RH  049%=      5-min Rain = 0
KES1 190713Z 17011KT 29/18 A2985 RMK A01 T02940175  RH  049%=      5-min Rain = 0
KES1 190714Z 17010G15KT 29/18 A2985 RMK A01 T02940175  RH  049%=      5-min Rain = 0
KES1 190715Z 17011KT 29/18 A2985 RMK A01 T02940175  RH  049%=      5-min Rain = 0
KES1 190716Z 16011KT 29/18 A2985 RMK A01 T02930175  RH  049%=      5-min Rain = 0
KES1 190717Z 17010KT 29/18 A2985 RMK A01 T02930175  RH  049%=      5-min Rain = 0
KES1 190718Z 16010KT 29/18 A2985 RMK A01 T02930175  RH  049%=      5-min Rain = 0
KES1 190719Z 17012KT 29/17 A2985 RMK A01 T02930174  RH  049%=      5-min Rain = 0
KES1 190720Z 17010KT 29/17 A2985 RMK A01 T02930174  RH  049%=      5-min Rain = 0
KES1 190721Z 17011KT 29/17 A2985 RMK A01 T02930174  RH  049%=      5-min Rain = 0
KES1 190722Z 16012KT 29/17 A2985 RMK A01 T02930174  RH  049%=      5-min Rain = 0
KES1 190723Z 17012KT 29/17 A2985 RMK A01 T02920174  RH  049%=      5-min Rain = 0
KES1 190724Z 17011KT 29/17 A2985 RMK A01 T02920173  RH  049%=      5-min Rain = 0
KES1 190725Z 17011KT 29/17 A2985 RMK A01 T02930174  RH  049%=      5-min Rain = 0
KES1 190726Z 16010KT 29/17 A2985 RMK A01 T02920173  RH  049%=      5-min Rain = 0
KES1 190727Z 17010KT 29/17 A2985 RMK A01 T02920174  RH  049%=      5-min Rain = 0
KES1 190728Z 16012KT 29/17 A2985 RMK A01 T02920173  RH  049%=      5-min Rain = 0
KES1 190729Z 17012KT 29/17 A2985 RMK A01 T02910173  RH  049%=      5-min Rain = 0
KES1 190730Z 16012KT 29/17 A2985 RMK A01 T02910172  RH  049%=      5-min Rain = 0
KES1 190731Z 16010KT 29/17 A2985 RMK A01 T02920172  RH  049%=      5-min Rain = 0
KES1 190732Z 17012KT 29/17 A2985 RMK A01 T02910172  RH  049%=      5-min Rain = 0
KES1 190733Z 17013KT 29/17 A2985 RMK A01 T02910172  RH  048%=      5-min Rain = 0
KES1 190734Z 17011KT 29/17 A2985 RMK A01 T02920172  RH  048%=      5-min Rain = 0
KES1 190735Z 17011KT 29/17 A2985 RMK A01 T02920172  RH  048%=      5-min Rain = 0
KES1 190736Z 16010KT 29/17 A2985 RMK A01 T02920172  RH  049%=      5-min Rain = 0
KES1 190737Z 17011KT 29/17 A2985 RMK A01 T02910172  RH  049%=      5-min Rain = 0
KES1 190738Z 17011KT 29/17 A2985 RMK A01 T02910172  RH  049%=      5-min Rain = 0
KES1 190739Z 17012KT 29/17 A2985 RMK A01 T02910172  RH  049%=      5-min Rain = 0
KES1 190740Z 16012KT 29/17 A2985 RMK A01 T02910172  RH  049%=      5-min Rain = 0
KES1 190741Z 17012KT 29/17 A2985 RMK A01 T02900171  RH  049%=      5-min Rain = 0
KES1 190742Z 17011KT 29/17 A2985 RMK A01 T02910172  RH  049%=      5-min Rain = 0
KES1 190743Z 16010KT 29/17 A2985 RMK A01 T02900172  RH  049%=      5-min Rain = 0
KES1 190744Z 16012KT 29/17 A2985 RMK A01 T02900171  RH  049%=      5-min Rain = 0
KES1 190745Z 16011KT 29/17 A2985 RMK A01 T02900171  RH  049%=      5-min Rain = 0
KES1 190746Z 17010KT 29/17 A2985 RMK A01 T02890171  RH  049%=      5-min Rain = 0
KES1 190747Z 17012KT 29/17 A2985 RMK A01 T02890171  RH  049%=      5-min Rain = 0
KES1 190748Z 17011KT 29/17 A2985 RMK A01 T02890171  RH  049%=      5-min Rain = 0
KES1 190749Z 17011KT 29/17 A2985 RMK A01 T02890171  RH  049%=      5-min Rain = 0
KES1 190750Z 17011KT 29/17 A2985 RMK A01 T02890171  RH  049%=      5-min Rain = 0
KES1 190751Z 17010G15KT 29/17 A2985 RMK A01 T02880171  RH  049%=      5-min Rain = 0
KES1 190752Z 17011KT 29/17 A2985 RMK A01 T02880171  RH  049%=      5-min Rain = 0
KES1 190753Z 16011KT 29/17 A2985 RMK A01 T02880171  RH  049%=      5-min Rain = 0
KES1 190754Z 17010KT 29/17 A2985 RMK A01 T02870171  RH  049%=      5-min Rain = 0
KES1 190755Z 17011KT 29/17 A2985 RMK A01 T02870171  RH  049%=      5-min Rain = 0
KES1 190756Z 17012KT 29/17 A2985 RMK A01 T02870170  RH  049%=      5-min Rain = 0
KES1 190757Z 17012KT 29/17 A2985 RMK A01 T02870170  RH  049%=      5-min Rain = 0
KES1 190758Z 17011KT 29/17 A2985 RMK A01 T02880170  RH  049%=      5-min Rain = 0
KES1 190759Z 17012KT 29/17 A2985 RMK A01 T02880171  RH  049%=      5-min Rain = 0
KES1 190800Z 16010KT 29/17 A2985 RMK A01 T02870171  RH  049%=      5-min Rain = 0
KES1 190801Z 17010KT 29/17 A2985 RMK A01 T02870170  RH  049%=      5-min Rain = 0
KES1 190802Z 17010G15KT 29/17 A2985 RMK A01 T02860171  RH  049%=      5-min Rain = 0
KES1 190803Z 17009KT 29/17 A2985 RMK A01 T02860170  RH  050%=      5-min Rain = 0
KES1 190804Z 17011KT 29/17 A2985 RMK A01 T02860170  RH  050%=      5-min Rain = 0
KES1 190805Z 17010KT 29/17 A2985 RMK A01 T02860170  RH  050%=      5-min Rain = 0
KES1 190806Z 17011KT 29/17 A2985 RMK A01 T02860170  RH  050%=      5-min Rain = 0
KES1 190807Z 16010KT 29/17 A2985 RMK A01 T02860171  RH  050%=      5-min Rain = 0
KES1 190808Z 17012KT 29/17 A2985 RMK A01 T02850170  RH  050%=      5-min Rain = 0
KES1 190809Z 17010G15KT 29/17 A2985 RMK A01 T02850170  RH  050%=      5-min Rain = 0
KES1 190810Z 17012KT 29/17 A2985 RMK A01 T02850170  RH  050%=      5-min Rain = 0
KES1 190811Z 17010KT 29/17 A2985 RMK A01 T02850170  RH  050%=      5-min Rain = 0
KES1 190812Z 16009KT 28/17 A2985 RMK A01 T02840170  RH  050%=      5-min Rain = 0
KES1 190813Z 16010KT 28/17 A2985 RMK A01 T02840170  RH  050%=      5-min Rain = 0
KES1 190814Z 17011KT 28/17 A2985 RMK A01 T02830170  RH  050%=      5-min Rain = 0
KES1 190815Z 17010KT 28/17 A2985 RMK A01 T02830170  RH  050%=      5-min Rain = 0
KES1 190816Z 16010KT 28/17 A2985 RMK A01 T02830170  RH  050%=      5-min Rain = 0
KES1 190817Z 17011KT 28/17 A2985 RMK A01 T02830170  RH  050%=      5-min Rain = 0
KES1 190818Z 17009KT 28/17 A2985 RMK A01 T02830169  RH  050%=      5-min Rain = 0
KES1 190819Z 16011KT 28/17 A2985 RMK A01 T02830170  RH  050%=      5-min Rain = 0
KES1 190820Z 17010KT 28/17 A2985 RMK A01 T02830170  RH  050%=      5-min Rain = 0
KES1 190821Z 17011KT 28/17 A2985 RMK A01 T02820170  RH  050%=      5-min Rain = 0
KES1 190822Z 17011KT 28/17 A2985 RMK A01 T02820169  RH  050%=      5-min Rain = 0
KES1 190823Z 16011KT 28/17 A2985 RMK A01 T02820169  RH  050%=      5-min Rain = 0
KES1 190824Z 16010KT 28/17 A2985 RMK A01 T02820169  RH  050%=      5-min Rain = 0
KES1 190825Z 17011KT 28/17 A2985 RMK A01 T02810169  RH  051%=      5-min Rain = 0
KES1 190826Z 16011KT 28/17 A2985 RMK A01 T02810169  RH  051%=      5-min Rain = 0
KES1 190827Z 16011KT 28/17 A2985 RMK A01 T02810169  RH  051%=      5-min Rain = 0
KES1 190828Z 17011KT 28/17 A2985 RMK A01 T02810169  RH  051%=      5-min Rain = 0
KES1 190829Z 17008KT 28/17 A2985 RMK A01 T02810169  RH  051%=      5-min Rain = 0
KES1 190830Z 16011KT 28/17 A2985 RMK A01 T02810169  RH  051%=      5-min Rain = 0
KES1 190831Z 17010KT 28/17 A2985 RMK A01 T02800169  RH  051%=      5-min Rain = 0
KES1 190832Z 16009KT 28/17 A2985 RMK A01 T02800169  RH  051%=      5-min Rain = 0
KES1 190833Z 17010KT 28/17 A2985 RMK A01 T02800169  RH  051%=      5-min Rain = 0
KES1 190834Z 17010KT 28/17 A2985 RMK A01 T02800169  RH  051%=      5-min Rain = 0
KES1 190835Z 16011KT 28/17 A2985 RMK A01 T02800169  RH  051%=      5-min Rain = 0
KES1 190836Z 17009KT 28/17 A2985 RMK A01 T02790169  RH  051%=      5-min Rain = 0
KES1 190837Z 16011KT 28/17 A2985 RMK A01 T02790169  RH  051%=      5-min Rain = 0
KES1 190838Z 17009KT 28/17 A2985 RMK A01 T02790169  RH  051%=      5-min Rain = 0
KES1 190839Z 16011KT 28/17 A2985 RMK A01 T02790169  RH  051%=      5-min Rain = 0
KES1 190840Z 16010KT 28/17 A2985 RMK A01 T02790169  RH  051%=      5-min Rain = 0
KES1 190841Z 16010KT 28/17 A2985 RMK A01 T02790169  RH  051%=      5-min Rain = 0
KES1 190842Z 17011KT 28/17 A2985 RMK A01 T02780169  RH  051%=      5-min Rain = 0
KES1 190843Z 16011KT 28/17 A2985 RMK A01 T02780168  RH  051%=      5-min Rain = 0
KES1 190844Z 16011KT 28/17 A2985 RMK A01 T02780169  RH  051%=      5-min Rain = 0
KES1 190845Z 17010KT 28/17 A2985 RMK A01 T02780169  RH  051%=      5-min Rain = 0
KES1 190846Z 17011KT 28/17 A2985 RMK A01 T02770168  RH  051%=      5-min Rain = 0
KES1 190847Z 17011KT 28/17 A2985 RMK A01 T02770168  RH  052%=      5-min Rain = 0
KES1 190848Z 17008KT 28/17 A2985 RMK A01 T02770168  RH  052%=      5-min Rain = 0
KES1 190849Z 17011KT 28/17 A2985 RMK A01 T02760168  RH  052%=      5-min Rain = 0
KES1 190850Z 17011KT 28/17 A2985 RMK A01 T02760169  RH  052%=      5-min Rain = 0
KES1 190851Z 17011KT 28/17 A2985 RMK A01 T02760168  RH  052%=      5-min Rain = 0
KES1 190852Z 17009KT 28/17 A2985 RMK A01 T02760168  RH  052%=      5-min Rain = 0
KES1 190853Z 16009KT 28/17 A2985 RMK A01 T02760168  RH  052%=      5-min Rain = 0
KES1 190854Z 17010KT 28/17 A2985 RMK A01 T02760168  RH  052%=      5-min Rain = 0
KES1 190855Z 17010KT 28/17 A2985 RMK A01 T02750168  RH  052%=      5-min Rain = 0
KES1 190856Z 17009KT 28/17 A2985 RMK A01 T02750168  RH  052%=      5-min Rain = 0
KES1 190857Z 17009KT 28/17 A2985 RMK A01 T02750168  RH  052%=      5-min Rain = 0
KES1 190858Z 17009KT 27/17 A2985 RMK A01 T02740168  RH  052%=      5-min Rain = 0
KES1 190859Z 17010KT 27/17 A2985 RMK A01 T02740168  RH  052%=      5-min Rain = 0
KES1 190900Z 17009KT 27/17 A2985 RMK A01 T02740168  RH  052%=      5-min Rain = 0
KES1 190901Z 17010KT 27/17 A2985 RMK A01 T02740168  RH  052%=      5-min Rain = 0
KES1 190902Z 17009KT 27/17 A2985 RMK A01 T02740168  RH  052%=      5-min Rain = 0
KES1 190903Z 17010KT 27/17 A2985 RMK A01 T02740168  RH  052%=      5-min Rain = 0
KES1 190904Z 16010KT 27/17 A2985 RMK A01 T02730168  RH  053%=      5-min Rain = 0
KES1 190905Z 17009KT 27/17 A2985 RMK A01 T02730168  RH  053%=      5-min Rain = 0
KES1 190906Z 17009KT 27/17 A2985 RMK A01 T02730168  RH  053%=      5-min Rain = 0
KES1 190907Z 16010KT 27/17 A2985 RMK A01 T02720168  RH  053%=      5-min Rain = 0
KES1 190908Z 17009KT 27/17 A2985 RMK A01 T02720168  RH  053%=      5-min Rain = 0
KES1 190909Z 17009KT 27/17 A2985 RMK A01 T02720168  RH  053%=      5-min Rain = 0
KES1 190910Z 17010KT 27/17 A2985 RMK A01 T02710168  RH  053%=      5-min Rain = 0
KES1 190911Z 16010KT 27/17 A2985 RMK A01 T02720168  RH  053%=      5-min Rain = 0
KES1 190912Z 16010KT 27/17 A2985 RMK A01 T02710168  RH  053%=      5-min Rain = 0
KES1 190913Z 16009KT 27/17 A2985 RMK A01 T02710168  RH  053%=      5-min Rain = 0
KES1 190914Z 16009KT 27/17 A2985 RMK A01 T02710168  RH  053%=      5-min Rain = 0
KES1 190915Z 16008KT 27/17 A2986 RMK A01 T02700168  RH  053%=      5-min Rain = 0
KES1 190916Z 16009KT 27/17 A2986 RMK A01 T02700167  RH  053%=      5-min Rain = 0
KES1 190917Z 16010KT 27/17 A2986 RMK A01 T02700168  RH  053%=      5-min Rain = 0
KES1 190918Z 16010KT 27/17 A2986 RMK A01 T02700168  RH  053%=      5-min Rain = 0
KES1 190919Z 17010KT 27/17 A2986 RMK A01 T02700167  RH  053%=      5-min Rain = 0
KES1 190920Z 17011KT 27/17 A2986 RMK A01 T02700167  RH  053%=      5-min Rain = 0
KES1 190921Z 17010KT 27/17 A2986 RMK A01 T02700167  RH  053%=      5-min Rain = 0
KES1 190922Z 16009KT 27/17 A2986 RMK A01 T02690167  RH  053%=      5-min Rain = 0
KES1 190923Z 17010KT 27/17 A2986 RMK A01 T02700167  RH  053%=      5-min Rain = 0
KES1 190924Z 16009KT 27/17 A2986 RMK A01 T02700167  RH  053%=      5-min Rain = 0
KES1 190925Z 17010KT 27/17 A2986 RMK A01 T02690167  RH  054%=      5-min Rain = 0
KES1 190926Z 16010KT 27/17 A2986 RMK A01 T02690167  RH  053%=      5-min Rain = 0
KES1 190927Z 16011KT 27/17 A2986 RMK A01 T02690167  RH  054%=      5-min Rain = 0
KES1 190928Z 17009KT 27/17 A2986 RMK A01 T02690167  RH  053%=      5-min Rain = 0
KES1 190929Z 17009KT 27/17 A2986 RMK A01 T02690167  RH  053%=      5-min Rain = 0
KES1 190930Z 17008KT 27/17 A2986 RMK A01 T02690167  RH  053%=      5-min Rain = 0
KES1 190931Z 17010KT 27/17 A2986 RMK A01 T02690167  RH  054%=      5-min Rain = 0
KES1 190932Z 17008KT 27/17 A2986 RMK A01 T02690167  RH  054%=      5-min Rain = 0
KES1 190933Z 17009KT 27/17 A2986 RMK A01 T02680167  RH  054%=      5-min Rain = 0
KES1 190934Z 16010KT 27/17 A2986 RMK A01 T02680166  RH  054%=      5-min Rain = 0
KES1 190935Z 17007G12KT 27/17 A2986 RMK A01 T02680166  RH  054%=      5-min Rain = 0
KES1 190936Z 17009KT 27/17 A2986 RMK A01 T02680166  RH  054%=      5-min Rain = 0
KES1 190937Z 17009KT 27/17 A2986 RMK A01 T02670166  RH  054%=      5-min Rain = 0
KES1 190938Z 17008KT 27/17 A2986 RMK A01 T02670166  RH  054%=      5-min Rain = 0
KES1 190939Z 17008KT 27/17 A2986 RMK A01 T02670166  RH  054%=      5-min Rain = 0
KES1 190940Z 17007KT 27/17 A2986 RMK A01 T02670166  RH  054%=      5-min Rain = 0
KES1 190941Z 17009KT 27/17 A2986 RMK A01 T02670166  RH  054%=      5-min Rain = 0
KES1 190942Z 17008KT 27/17 A2986 RMK A01 T02660166  RH  054%=      5-min Rain = 0
KES1 190943Z 17007KT 27/17 A2986 RMK A01 T02660165  RH  054%=      5-min Rain = 0
KES1 190944Z 17008KT 27/17 A2986 RMK A01 T02660166  RH  054%=      5-min Rain = 0
KES1 190945Z 17006KT 27/17 A2986 RMK A01 T02660166  RH  054%=      5-min Rain = 0
KES1 190946Z 17008KT 27/17 A2986 RMK A01 T02660166  RH  054%=      5-min Rain = 0
KES1 190947Z 17008KT 27/17 A2986 RMK A01 T02660166  RH  054%=      5-min Rain = 0
KES1 190948Z 17008KT 27/17 A2986 RMK A01 T02660166  RH  054%=      5-min Rain = 0
KES1 190949Z 17008KT 27/17 A2986 RMK A01 T02650165  RH  054%=      5-min Rain = 0
KES1 190950Z 17008KT 27/17 A2986 RMK A01 T02650166  RH  054%=      5-min Rain = 0
KES1 190951Z 17008KT 27/17 A2986 RMK A01 T02650165  RH  054%=      5-min Rain = 0
KES1 190952Z 17008KT 27/17 A2986 RMK A01 T02650165  RH  054%=      5-min Rain = 0
KES1 190953Z 17008KT 27/17 A2986 RMK A01 T02650165  RH  054%=      5-min Rain = 0
KES1 190954Z 17008KT 27/17 A2986 RMK A01 T02650165  RH  054%=      5-min Rain = 0
KES1 190955Z 18010KT 27/17 A2986 RMK A01 T02650165  RH  054%=      5-min Rain = 0
KES1 190956Z 17008KT 27/17 A2986 RMK A01 T02650165  RH  054%=      5-min Rain = 0
KES1 190957Z 17007KT 27/17 A2986 RMK A01 T02650165  RH  054%=      5-min Rain = 0
KES1 190958Z 18007KT 27/17 A2986 RMK A01 T02650165  RH  054%=      5-min Rain = 0
KES1 190959Z 18008KT 27/17 A2986 RMK A01 T02650165  RH  054%=      5-min Rain = 0
KES1 191000Z 17007KT 26/17 A2986 RMK A01 T02640165  RH  054%=      5-min Rain = 0
KES1 191001Z 17008KT 26/17 A2986 RMK A01 T02640165  RH  054%=      5-min Rain = 0
KES1 191002Z 17006KT 26/17 A2986 RMK A01 T02640165  RH  054%=      5-min Rain = 0
KES1 191003Z 17008KT 26/17 A2986 RMK A01 T02640165  RH  054%=      5-min Rain = 0
KES1 191004Z 17008KT 26/16 A2986 RMK A01 T02630164  RH  054%=      5-min Rain = 0
KES1 191005Z 17008KT 26/17 A2986 RMK A01 T02640165  RH  054%=      5-min Rain = 0
KES1 191006Z 17008KT 26/16 A2986 RMK A01 T02630164  RH  055%=      5-min Rain = 0
KES1 191007Z 17006KT 26/16 A2986 RMK A01 T02630164  RH  055%=      5-min Rain = 0
KES1 191008Z 17007KT 26/17 A2986 RMK A01 T02630165  RH  055%=      5-min Rain = 0
KES1 191009Z 17007KT 26/16 A2986 RMK A01 T02630164  RH  055%=      5-min Rain = 0
KES1 191010Z 17005KT 26/16 A2986 RMK A01 T02620164  RH  055%=      5-min Rain = 0
KES1 191011Z 17006KT 26/16 A2986 RMK A01 T02620164  RH  055%=      5-min Rain = 0
KES1 191012Z 17007KT 26/16 A2986 RMK A01 T02620164  RH  055%=      5-min Rain = 0
KES1 191013Z 17007KT 26/16 A2986 RMK A01 T02610164  RH  055%=      5-min Rain = 0
KES1 191014Z 17008KT 26/16 A2986 RMK A01 T02610164  RH  055%=      5-min Rain = 0
KES1 191015Z 17007KT 26/16 A2986 RMK A01 T02610164  RH  055%=      5-min Rain = 0
KES1 191016Z 17008KT 26/16 A2986 RMK A01 T02610164  RH  055%=      5-min Rain = 0
KES1 191017Z 17008KT 26/16 A2986 RMK A01 T02610164  RH  055%=      5-min Rain = 0
KES1 191018Z 17008KT 26/16 A2986 RMK A01 T02610163  RH  055%=      5-min Rain = 0
KES1 191019Z 17006KT 26/16 A2986 RMK A01 T02610164  RH  055%=      5-min Rain = 0
KES1 191020Z 17007KT 26/16 A2986 RMK A01 T02610163  RH  055%=      5-min Rain = 0
KES1 191021Z 17007KT 26/16 A2986 RMK A01 T02610164  RH  055%=      5-min Rain = 0
KES1 191022Z 17007KT 26/16 A2987 RMK A01 T02610163  RH  055%=      5-min Rain = 0
KES1 191023Z 17007KT 26/16 A2987 RMK A01 T02610163  RH  055%=      5-min Rain = 0
KES1 191024Z 17007KT 26/16 A2987 RMK A01 T02610163  RH  055%=      5-min Rain = 0
KES1 191025Z 17007KT 26/16 A2987 RMK A01 T02610163  RH  055%=      5-min Rain = 0
KES1 191026Z 17006KT 26/16 A2987 RMK A01 T02610163  RH  055%=      5-min Rain = 0
KES1 191027Z 17006KT 26/16 A2987 RMK A01 T02600163  RH  055%=      5-min Rain = 0
KES1 191028Z 16006KT 26/16 A2987 RMK A01 T02600163  RH  055%=      5-min Rain = 0
KES1 191029Z 17005KT 26/16 A2987 RMK A01 T02590163  RH  055%=      5-min Rain = 0
KES1 191030Z 16005KT 26/16 A2987 RMK A01 T02590163  RH  055%=      5-min Rain = 0
KES1 191031Z 17006KT 26/16 A2987 RMK A01 T02580163  RH  056%=      5-min Rain = 0
KES1 191032Z 17005KT 26/16 A2987 RMK A01 T02580163  RH  056%=      5-min Rain = 0
KES1 191033Z 17007KT 26/16 A2987 RMK A01 T02570163  RH  056%=      5-min Rain = 0
KES1 191034Z 17005KT 26/16 A2987 RMK A01 T02580163  RH  056%=      5-min Rain = 0
KES1 191035Z 17006KT 26/16 A2987 RMK A01 T02580162  RH  055%=      5-min Rain = 0
KES1 191036Z 17007KT 26/16 A2987 RMK A01 T02580163  RH  055%=      5-min Rain = 0
KES1 191037Z 17008KT 26/16 A2987 RMK A01 T02580163  RH  055%=      5-min Rain = 0
KES1 191038Z 17008KT 26/16 A2986 RMK A01 T02580162  RH  055%=      5-min Rain = 0
KES1 191039Z 17006KT 26/16 A2986 RMK A01 T02580162  RH  055%=      5-min Rain = 0
KES1 191040Z 17006KT 26/16 A2986 RMK A01 T02580162  RH  055%=      5-min Rain = 0
KES1 191041Z 17006KT 26/16 A2986 RMK A01 T02580163  RH  056%=      5-min Rain = 0
KES1 191042Z 17007KT 26/16 A2987 RMK A01 T02580162  RH  056%=      5-min Rain = 0
KES1 191043Z 17007KT 26/16 A2987 RMK A01 T02580162  RH  056%=      5-min Rain = 0
KES1 191044Z 17007KT 26/16 A2987 RMK A01 T02580162  RH  056%=      5-min Rain = 0
KES1 191045Z 17007KT 26/16 A2986 RMK A01 T02580162  RH  056%=      5-min Rain = 0
KES1 191046Z 17007KT 26/16 A2986 RMK A01 T02570162  RH  055%=      5-min Rain = 0
KES1 191047Z 18008KT 26/16 A2987 RMK A01 T02580162  RH  055%=      5-min Rain = 0
KES1 191048Z 17008KT 26/16 A2987 RMK A01 T02580162  RH  055%=      5-min Rain = 0
KES1 191049Z 18007KT 26/16 A2987 RMK A01 T02580162  RH  055%=      5-min Rain = 0
KES1 191050Z 17007KT 26/16 A2987 RMK A01 T02580162  RH  055%=      5-min Rain = 0
KES1 191051Z 17007KT 26/16 A2987 RMK A01 T02580162  RH  055%=      5-min Rain = 0
KES1 191052Z 17006KT 26/16 A2987 RMK A01 T02570162  RH  055%=      5-min Rain = 0
KES1 191053Z 17007KT 26/16 A2987 RMK A01 T02580162  RH  055%=      5-min Rain = 0
KES1 191054Z 17008KT 26/16 A2987 RMK A01 T02580162  RH  056%=      5-min Rain = 0
KES1 191055Z 17006KT 26/16 A2987 RMK A01 T02580162  RH  056%=      5-min Rain = 0
KES1 191056Z 17006KT 26/16 A2987 RMK A01 T02570162  RH  056%=      5-min Rain = 0
KES1 191057Z 17007KT 26/16 A2987 RMK A01 T02570162  RH  056%=      5-min Rain = 0
KES1 191058Z 17007KT 26/16 A2987 RMK A01 T02570162  RH  056%=      5-min Rain = 0
KES1 191059Z 17005KT 26/16 A2987 RMK A01 T02570162  RH  056%=      5-min Rain = 0
KES1 191100Z 16007KT 26/16 A2987 RMK A01 T02560162  RH  056%=      5-min Rain = 0
KES1 191101Z 16006KT 26/16 A2987 RMK A01 T02560162  RH  056%=      5-min Rain = 0
KES1 191102Z 17006KT 26/16 A2987 RMK A01 T02550162  RH  056%=      5-min Rain = 0
KES1 191103Z 17007KT 26/16 A2987 RMK A01 T02550162  RH  056%=      5-min Rain = 0
KES1 191104Z 17007KT 26/16 A2987 RMK A01 T02550162  RH  056%=      5-min Rain = 0
KES1 191105Z 17007KT 26/16 A2987 RMK A01 T02550162  RH  056%=      5-min Rain = 0
KES1 191106Z 17006KT 26/16 A2987 RMK A01 T02550162  RH  056%=      5-min Rain = 0
KES1 191107Z 17006KT 26/16 A2987 RMK A01 T02550162  RH  056%=      5-min Rain = 0
KES1 191108Z 17006KT 25/16 A2987 RMK A01 T02540162  RH  056%=      5-min Rain = 0
KES1 191109Z 17007KT 25/16 A2987 RMK A01 T02540162  RH  056%=      5-min Rain = 0
KES1 191110Z 17006KT 25/16 A2987 RMK A01 T02540162  RH  057%=      5-min Rain = 0
KES1 191111Z 17006KT 25/16 A2987 RMK A01 T02540161  RH  057%=      5-min Rain = 0
KES1 191112Z 17006KT 25/16 A2987 RMK A01 T02540162  RH  057%=      5-min Rain = 0
KES1 191113Z 17007KT 25/16 A2987 RMK A01 T02530161  RH  057%=      5-min Rain = 0
KES1 191114Z 17007KT 25/16 A2987 RMK A01 T02540162  RH  057%=      5-min Rain = 0
KES1 191115Z 17009KT 25/16 A2987 RMK A01 T02530161  RH  057%=      5-min Rain = 0
KES1 191116Z 17007KT 25/16 A2987 RMK A01 T02540161  RH  057%=      5-min Rain = 0
KES1 191117Z 17008KT 25/16 A2987 RMK A01 T02540161  RH  057%=      5-min Rain = 0
KES1 191118Z 17008KT 25/16 A2987 RMK A01 T02540162  RH  057%=      5-min Rain = 0
KES1 191119Z 17007KT 25/16 A2987 RMK A01 T02540162  RH  057%=      5-min Rain = 0
KES1 191120Z 17007KT 25/16 A2987 RMK A01 T02540162  RH  057%=      5-min Rain = 0
KES1 191121Z 17007KT 25/16 A2987 RMK A01 T02540162  RH  057%=      5-min Rain = 0
KES1 191122Z 17007KT 25/16 A2987 RMK A01 T02530162  RH  057%=      5-min Rain = 0
KES1 191123Z 17008KT 25/16 A2987 RMK A01 T02530162  RH  057%=      5-min Rain = 0
KES1 191124Z 17008KT 25/16 A2987 RMK A01 T02520161  RH  057%=      5-min Rain = 0
KES1 191125Z 17009KT 25/16 A2987 RMK A01 T02530161  RH  057%=      5-min Rain = 0
KES1 191126Z 17008KT 25/16 A2987 RMK A01 T02530161  RH  057%=      5-min Rain = 0
KES1 191127Z 17008KT 25/16 A2987 RMK A01 T02530161  RH  057%=      5-min Rain = 0
KES1 191128Z 17009KT 25/16 A2987 RMK A01 T02530161  RH  057%=      5-min Rain = 0
KES1 191129Z 17008KT 25/16 A2987 RMK A01 T02530161  RH  057%=      5-min Rain = 0
KES1 191130Z 17008KT 25/16 A2987 RMK A01 T02530162  RH  057%=      5-min Rain = 0
KES1 191131Z 17008KT 25/16 A2987 RMK A01 T02530162  RH  057%=      5-min Rain = 0
KES1 191132Z 17007KT 25/16 A2987 RMK A01 T02540162  RH  057%=      5-min Rain = 0
KES1 191133Z 17007KT 25/16 A2987 RMK A01 T02530162  RH  057%=      5-min Rain = 0
KES1 191134Z 17009KT 25/16 A2987 RMK A01 T02530162  RH  057%=      5-min Rain = 0
KES1 191135Z 17008KT 25/16 A2987 RMK A01 T02530162  RH  057%=      5-min Rain = 0
KES1 191136Z 17007KT 25/16 A2987 RMK A01 T02530162  RH  057%=      5-min Rain = 0
KES1 191137Z 17007KT 25/16 A2987 RMK A01 T02530162  RH  057%=      5-min Rain = 0
KES1 191138Z 17008KT 25/16 A2987 RMK A01 T02540163  RH  057%=      5-min Rain = 0
KES1 191139Z 18008KT 25/16 A2987 RMK A01 T02540162  RH  057%=      5-min Rain = 0
KES1 191140Z 17007KT 25/16 A2987 RMK A01 T02530162  RH  057%=      5-min Rain = 0
KES1 191141Z 18006KT 25/16 A2988 RMK A01 T02540162  RH  057%=      5-min Rain = 0
KES1 191142Z 18007KT 25/16 A2988 RMK A01 T02530162  RH  057%=      5-min Rain = 0
KES1 191143Z 18006KT 25/16 A2988 RMK A01 T02540163  RH  057%=      5-min Rain = 0
KES1 191144Z 17007KT 25/16 A2988 RMK A01 T02530163  RH  057%=      5-min Rain = 0
KES1 191145Z 17007KT 25/16 A2988 RMK A01 T02540163  RH  057%=      5-min Rain = 0
KES1 191146Z 17007KT 25/16 A2988 RMK A01 T02530163  RH  057%=      5-min Rain = 0
KES1 191147Z 17007KT 25/16 A2988 RMK A01 T02540163  RH  057%=      5-min Rain = 0
KES1 191148Z 17006KT 25/16 A2988 RMK A01 T02530163  RH  057%=      5-min Rain = 0
KES1 191149Z 18006KT 25/16 A2988 RMK A01 T02530163  RH  057%=      5-min Rain = 0
KES1 191150Z 17007KT 25/16 A2988 RMK A01 T02540164  RH  057%=      5-min Rain = 0
KES1 191151Z 17006KT 25/16 A2988 RMK A01 T02530164  RH  058%=      5-min Rain = 0
KES1 191152Z 17006KT 25/16 A2988 RMK A01 T02530164  RH  058%=      5-min Rain = 0
KES1 191153Z 17007KT 25/16 A2988 RMK A01 T02530164  RH  058%=      5-min Rain = 0
KES1 191154Z 17007KT 25/16 A2988 RMK A01 T02530164  RH  058%=      5-min Rain = 0
KES1 191155Z 17006KT 25/16 A2988 RMK A01 T02530164  RH  058%=      5-min Rain = 0
KES1 191156Z 17008KT 25/16 A2988 RMK A01 T02530164  RH  058%=      5-min Rain = 0
KES1 191157Z 17006KT 25/16 A2988 RMK A01 T02530164  RH  058%=      5-min Rain = 0
KES1 191158Z 18006KT 25/16 A2988 RMK A01 T02530164  RH  058%=      5-min Rain = 0
KES1 191159Z 18006KT 25/16 A2988 RMK A01 T02530164  RH  058%=      5-min Rain = 0
KES1 191200Z 18007KT 25/17 A2988 RMK A01 T02540165  RH  058%=      5-min Rain = 0
KES1 191201Z 18007KT 25/17 A2988 RMK A01 T02540165  RH  058%=      5-min Rain = 0
KES1 191202Z 17007G12KT 25/17 A2988 RMK A01 T02540165  RH  058%=      5-min Rain = 0
KES1 191203Z 18007KT 26/17 A2988 RMK A01 T02550165  RH  058%=      5-min Rain = 0
KES1 191204Z 18008KT 26/17 A2988 RMK A01 T02550165  RH  058%=      5-min Rain = 0
KES1 191205Z 18006KT 26/17 A2988 RMK A01 T02550166  RH  058%=      5-min Rain = 0
KES1 191206Z 18007G12KT 26/17 A2988 RMK A01 T02550166  RH  058%=      5-min Rain = 0
KES1 191207Z 18006KT 26/17 A2988 RMK A01 T02550166  RH  058%=      5-min Rain = 0
KES1 191208Z 18006KT 26/17 A2988 RMK A01 T02550166  RH  058%=      5-min Rain = 0
KES1 191209Z 18009KT 26/17 A2988 RMK A01 T02550166  RH  058%=      5-min Rain = 0
KES1 191210Z 18008KT 26/17 A2988 RMK A01 T02550166  RH  058%=      5-min Rain = 0
KES1 191211Z 18006KT 26/17 A2988 RMK A01 T02560167  RH  058%=      5-min Rain = 0
KES1 191212Z 18006KT 26/17 A2988 RMK A01 T02560167  RH  058%=      5-min Rain = 0
KES1 191213Z 17007KT 26/17 A2988 RMK A01 T02560167  RH  058%=      5-min Rain = 0
KES1 191214Z 18007KT 26/17 A2988 RMK A01 T02560167  RH  058%=      5-min Rain = 0
KES1 191215Z 18006KT 26/17 A2988 RMK A01 T02560167  RH  058%=      5-min Rain = 0
KES1 191216Z 17006KT 26/17 A2988 RMK A01 T02560168  RH  058%=      5-min Rain = 0
KES1 191217Z 17007KT 26/17 A2988 RMK A01 T02560168  RH  058%=      5-min Rain = 0
KES1 191218Z 17006KT 26/17 A2988 RMK A01 T02570168  RH  058%=      5-min Rain = 0
KES1 191219Z 18008KT 26/17 A2988 RMK A01 T02570169  RH  058%=      5-min Rain = 0
KES1 191220Z 18007KT 26/17 A2988 RMK A01 T02570168  RH  058%=      5-min Rain = 0
KES1 191221Z 17007KT 26/17 A2988 RMK A01 T02570169  RH  058%=      5-min Rain = 0
KES1 191222Z 17007KT 26/17 A2988 RMK A01 T02580169  RH  058%=      5-min Rain = 0
KES1 191223Z 18006KT 26/17 A2988 RMK A01 T02580170  RH  058%=      5-min Rain = 0
KES1 191224Z 18007KT 26/17 A2988 RMK A01 T02580169  RH  058%=      5-min Rain = 0
KES1 191225Z 18006KT 26/17 A2988 RMK A01 T02580170  RH  058%=      5-min Rain = 0
KES1 191226Z 18007KT 26/17 A2988 RMK A01 T02580170  RH  058%=      5-min Rain = 0
KES1 191227Z 18007KT 26/17 A2988 RMK A01 T02590170  RH  058%=      5-min Rain = 0
KES1 191228Z 18007KT 26/17 A2988 RMK A01 T02590170  RH  058%=      5-min Rain = 0
KES1 191229Z 18007KT 26/17 A2988 RMK A01 T02590170  RH  058%=      5-min Rain = 0
KES1 191230Z 18006KT 26/17 A2988 RMK A01 T02600171  RH  058%=      5-min Rain = 0
KES1 191231Z 18005KT 26/17 A2988 RMK A01 T02600171  RH  058%=      5-min Rain = 0
KES1 191232Z 18005KT 26/17 A2988 RMK A01 T02610171  RH  058%=      5-min Rain = 0
KES1 191233Z 17006KT 26/17 A2988 RMK A01 T02610172  RH  058%=      5-min Rain = 0
KES1 191234Z 18008KT 26/17 A2988 RMK A01 T02610172  RH  058%=      5-min Rain = 0
KES1 191235Z 17006KT 26/17 A2988 RMK A01 T02620172  RH  058%=      5-min Rain = 0
KES1 191236Z 18006KT 26/17 A2988 RMK A01 T02620172  RH  058%=      5-min Rain = 0
KES1 191237Z 18007KT 26/17 A2988 RMK A01 T02620172  RH  058%=      5-min Rain = 0
KES1 191238Z 18006KT 26/17 A2988 RMK A01 T02630172  RH  057%=      5-min Rain = 0
KES1 191239Z 18007KT 26/17 A2988 RMK A01 T02630172  RH  058%=      5-min Rain = 0
KES1 191240Z 18006KT 26/17 A2988 RMK A01 T02630173  RH  058%=      5-min Rain = 0
KES1 191241Z 18007KT 26/17 A2988 RMK A01 T02630174  RH  058%=      5-min Rain = 0
KES1 191242Z 18006KT 26/17 A2988 RMK A01 T02630174  RH  058%=      5-min Rain = 0
KES1 191243Z 18009KT 26/17 A2988 RMK A01 T02640174  RH  058%=      5-min Rain = 0
KES1 191244Z 18008KT 27/17 A2988 RMK A01 T02650174  RH  057%=      5-min Rain = 0
KES1 191245Z 18008KT 27/17 A2988 RMK A01 T02650174  RH  057%=      5-min Rain = 0
KES1 191246Z 18008KT 27/17 A2988 RMK A01 T02660174  RH  057%=      5-min Rain = 0
KES1 191247Z 18007KT 27/18 A2988 RMK A01 T02670175  RH  057%=      5-min Rain = 0
KES1 191248Z 18009KT 27/18 A2988 RMK A01 T02670175  RH  057%=      5-min Rain = 0
KES1 191249Z 18011KT 27/17 A2988 RMK A01 T02670174  RH  057%=      5-min Rain = 0
KES1 191250Z 18011KT 27/17 A2988 RMK A01 T02670174  RH  057%=      5-min Rain = 0
KES1 191251Z 17008KT 27/17 A2988 RMK A01 T02670174  RH  057%=      5-min Rain = 0
KES1 191252Z 17007KT 27/18 A2988 RMK A01 T02680175  RH  057%=      5-min Rain = 0
KES1 191253Z 18010KT 27/18 A2988 RMK A01 T02690176  RH  057%=      5-min Rain = 0
KES1 191254Z 18010KT 27/18 A2988 RMK A01 T02700176  RH  057%=      5-min Rain = 0
KES1 191255Z 18010KT 27/18 A2988 RMK A01 T02700176  RH  056%=      5-min Rain = 0
KES1 191256Z 18011KT 27/18 A2988 RMK A01 T02700176  RH  056%=      5-min Rain = 0
KES1 191257Z 19009KT 27/18 A2988 RMK A01 T02700176  RH  057%=      5-min Rain = 0
KES1 191258Z 19010KT 27/18 A2988 RMK A01 T02710177  RH  056%=      5-min Rain = 0
KES1 191259Z 18012KT 27/18 A2988 RMK A01 T02700177  RH  057%=      5-min Rain = 0
KES1 191300Z 18009KT 27/18 A2988 RMK A01 T02710177  RH  057%=      5-min Rain = 0
KES1 191301Z 18010KT 27/18 A2988 RMK A01 T02710178  RH  057%=      5-min Rain = 0
KES1 191302Z 19008KT 27/18 A2988 RMK A01 T02720178  RH  057%=      5-min Rain = 0
KES1 191303Z 19007KT 27/18 A2988 RMK A01 T02720179  RH  057%=      5-min Rain = 0
KES1 191304Z 19010KT 27/18 A2988 RMK A01 T02720178  RH  056%=      5-min Rain = 0
KES1 191305Z 18010KT 27/18 A2988 RMK A01 T02730179  RH  056%=      5-min Rain = 0
KES1 191306Z 19008KT 27/18 A2988 RMK A01 T02730179  RH  056%=      5-min Rain = 0
KES1 191307Z 18007KT 27/18 A2988 RMK A01 T02740180  RH  057%=      5-min Rain = 0
KES1 191308Z 18010KT 28/18 A2988 RMK A01 T02750180  RH  056%=      5-min Rain = 0
KES1 191309Z 19009KT 28/18 A2988 RMK A01 T02750180  RH  056%=      5-min Rain = 0
KES1 191310Z 19010KT 28/18 A2988 RMK A01 T02760180  RH  056%=      5-min Rain = 0
KES1 191311Z 19008KT 28/18 A2988 RMK A01 T02760181  RH  056%=      5-min Rain = 0
KES1 191312Z 19011KT 28/18 A2988 RMK A01 T02770182  RH  056%=      5-min Rain = 0
KES1 191313Z 19009KT 28/18 A2988 RMK A01 T02780181  RH  056%=      5-min Rain = 0
KES1 191314Z 19009KT 28/18 A2988 RMK A01 T02780181  RH  056%=      5-min Rain = 0
KES1 191315Z 19012KT 28/18 A2988 RMK A01 T02780181  RH  055%=      5-min Rain = 0
KES1 191316Z 20012KT 28/18 A2988 RMK A01 T02780181  RH  055%=      5-min Rain = 0
KES1 191317Z 19011KT 28/18 A2988 RMK A01 T02780181  RH  056%=      5-min Rain = 0
KES1 191318Z 19012KT 28/18 A2988 RMK A01 T02790182  RH  056%=      5-min Rain = 0
KES1 191319Z 19013KT 28/18 A2988 RMK A01 T02800182  RH  055%=      5-min Rain = 0
KES1 191320Z 19012G17KT 28/18 A2988 RMK A01 T02800182  RH  055%=      5-min Rain = 0
KES1 191321Z 20010KT 28/18 A2988 RMK A01 T02810183  RH  055%=      5-min Rain = 0
KES1 191322Z 19012KT 28/18 A2988 RMK A01 T02820183  RH  055%=      5-min Rain = 0
KES1 191323Z 19009KT 28/18 A2988 RMK A01 T02830184  RH  055%=      5-min Rain = 0
KES1 191324Z 19013G20KT 28/18 A2988 RMK A01 T02830184  RH  055%=      5-min Rain = 0
KES1 191325Z 19015KT 28/18 A2988 RMK A01 T02840183  RH  054%=      5-min Rain = 0
KES1 191326Z 19009KT 28/18 A2988 RMK A01 T02840184  RH  055%=      5-min Rain = 0
KES1 191327Z 19010KT 28/18 A2988 RMK A01 T02840184  RH  055%=      5-min Rain = 0
KES1 191328Z 19009KT 29/18 A2988 RMK A01 T02850184  RH  054%=      5-min Rain = 0
KES1 191329Z 19014KT 29/18 A2988 RMK A01 T02850184  RH  054%=      5-min Rain = 0
KES1 191330Z 20012G19KT 29/18 A2988 RMK A01 T02860184  RH  054%=      5-min Rain = 0
KES1 191331Z 20010KT 29/19 A2988 RMK A01 T02860185  RH  054%=      5-min Rain = 0
KES1 191332Z 19011KT 29/19 A2988 RMK A01 T02860185  RH  054%=      5-min Rain = 0
KES1 191333Z 19009G14KT 29/19 A2988 RMK A01 T02860185  RH  054%=      5-min Rain = 0
KES1 191334Z 19014KT 29/19 A2988 RMK A01 T02870185  RH  054%=      5-min Rain = 0
KES1 191335Z 19012KT 29/19 A2988 RMK A01 T02870185  RH  054%=      5-min Rain = 0
KES1 191336Z 19011KT 29/19 A2988 RMK A01 T02880186  RH  054%=      5-min Rain = 0
KES1 191337Z 20012G18KT 29/19 A2988 RMK A01 T02890186  RH  054%=      5-min Rain = 0
KES1 191338Z 19013G18KT 29/19 A2988 RMK A01 T02890185  RH  053%=      5-min Rain = 0
KES1 191339Z 19011G17KT 29/19 A2988 RMK A01 T02900186  RH  054%=      5-min Rain = 0
KES1 191340Z 19008KT 29/19 A2988 RMK A01 T02900187  RH  054%=      5-min Rain = 0
KES1 191341Z 19010KT 29/19 A2988 RMK A01 T02910187  RH  053%=      5-min Rain = 0
KES1 191342Z 20010KT 29/19 A2988 RMK A01 T02920186  RH  053%=      5-min Rain = 0
KES1 191343Z 20015KT 29/19 A2988 RMK A01 T02930186  RH  053%=      5-min Rain = 0
KES1 191344Z 20013KT 29/19 A2988 RMK A01 T02930186  RH  053%=      5-min Rain = 0
KES1 191345Z 20013KT 29/19 A2988 RMK A01 T02930187  RH  053%=      5-min Rain = 0
KES1 191346Z 20013KT 29/19 A2988 RMK A01 T02930187  RH  053%=      5-min Rain = 0
KES1 191347Z 19013KT 29/19 A2988 RMK A01 T02920187  RH  053%=      5-min Rain = 0
KES1 191348Z 20012KT 29/19 A2988 RMK A01 T02930187  RH  053%=      5-min Rain = 0
KES1 191349Z 20010KT 29/19 A2988 RMK A01 T02930186  RH  053%=      5-min Rain = 0
KES1 191350Z 20009KT 29/19 A2988 RMK A01 T02940188  RH  053%=      5-min Rain = 0
KES1 191351Z 20012G18KT 30/19 A2988 RMK A01 T02950188  RH  052%=      5-min Rain = 0
KES1 191352Z 19016G21KT 30/19 A2988 RMK A01 T02960186  RH  052%=      5-min Rain = 0
KES1 191353Z 20011G17KT 30/19 A2989 RMK A01 T02960186  RH  052%=      5-min Rain = 0
KES1 191354Z 20013KT 30/19 A2989 RMK A01 T02960186  RH  052%=      5-min Rain = 0
KES1 191355Z 20011G17KT 30/19 A2989 RMK A01 T02970186  RH  051%=      5-min Rain = 0
KES1 191356Z 19010KT 30/19 A2989 RMK A01 T02970186  RH  052%=      5-min Rain = 0
KES1 191357Z 19010KT 30/19 A2989 RMK A01 T02970189  RH  052%=      5-min Rain = 0
KES1 191358Z 19012KT 30/19 A2989 RMK A01 T02990188  RH  052%=      5-min Rain = 0
KES1 191359Z 19014G19KT 30/19 A2989 RMK A01 T02990187  RH  051%=      5-min Rain = 0
KES1 191400Z 19015KT 30/19 A2989 RMK A01 T02980187  RH  051%=      5-min Rain = 0
KES1 191401Z 20011KT 30/19 A2989 RMK A01 T02980187  RH  051%=      5-min Rain = 0
KES1 191402Z 19012KT 30/19 A2989 RMK A01 T02970187  RH  052%=      5-min Rain = 0
KES1 191403Z 19012KT 30/19 A2989 RMK A01 T02980188  RH  052%=      5-min Rain = 0
KES1 191404Z 19012KT 30/19 A2989 RMK A01 T02990188  RH  051%=      5-min Rain = 0
KES1 191405Z 19015KT 30/19 A2989 RMK A01 T02990187  RH  051%=      5-min Rain = 0
KES1 191406Z 20013KT 30/19 A2989 RMK A01 T03000187  RH  051%=      5-min Rain = 0
KES1 191407Z 17012KT 30/19 A2989 RMK A01 T02990187  RH  051%=      5-min Rain = 0
KES1 191408Z 18012G17KT 30/19 A2989 RMK A01 T03000188  RH  051%=      5-min Rain = 0
KES1 191409Z 18013KT 30/19 A2989 RMK A01 T03000187  RH  051%=      5-min Rain = 0
KES1 191410Z 19014KT 30/19 A2989 RMK A01 T03010188  RH  051%=      5-min Rain = 0
KES1 191411Z 19012KT 30/19 A2989 RMK A01 T03010187  RH  051%=      5-min Rain = 0
KES1 191412Z 18015KT 30/19 A2989 RMK A01 T03010187  RH  051%=      5-min Rain = 0
KES1 191413Z 19014KT 30/19 A2989 RMK A01 T03010188  RH  051%=      5-min Rain = 0
KES1 191414Z 20013KT 30/19 A2989 RMK A01 T03010187  RH  051%=      5-min Rain = 0
KES1 191415Z 19011KT 30/19 A2989 RMK A01 T03010189  RH  051%=      5-min Rain = 0
KES1 191416Z 19011KT 30/19 A2989 RMK A01 T03010190  RH  051%=      5-min Rain = 0
KES1 191417Z 20014KT 30/19 A2989 RMK A01 T03030189  RH  050%=      5-min Rain = 0
KES1 191418Z 20012KT 30/19 A2989 RMK A01 T03030189  RH  050%=      5-min Rain = 0
KES1 191419Z 20009KT 30/19 A2989 RMK A01 T03030190  RH  051%=      5-min Rain = 0
KES1 191420Z 20011KT 30/19 A2989 RMK A01 T03030189  RH  051%=      5-min Rain = 0
KES1 191421Z 18013G18KT 30/19 A2989 RMK A01 T03040190  RH  051%=      5-min Rain = 0
KES1 191422Z 19012G17KT 31/19 A2989 RMK A01 T03050189  RH  050%=      5-min Rain = 0
KES1 191423Z 18007KT 31/19 A2989 RMK A01 T03050192  RH  051%=      5-min Rain = 0
KES1 191424Z 18010KT 31/19 A2989 RMK A01 T03070192  RH  050%=      5-min Rain = 0
KES1 191425Z 18010G15KT 31/19 A2989 RMK A01 T03080191  RH  050%=      5-min Rain = 0
KES1 191426Z 17008KT 31/19 A2989 RMK A01 T03080192  RH  050%=      5-min Rain = 0
KES1 191427Z 18012KT 31/19 A2989 RMK A01 T03090191  RH  049%=      5-min Rain = 0
KES1 191428Z 18013G18KT 31/19 A2989 RMK A01 T03100191  RH  049%=      5-min Rain = 0
KES1 191429Z 18008KT 31/19 A2989 RMK A01 T03090192  RH  050%=      5-min Rain = 0
KES1 191430Z 18014KT 31/19 A2989 RMK A01 T03100191  RH  049%=      5-min Rain = 0
KES1 191431Z 18010KT 31/19 A2989 RMK A01 T03100192  RH  049%=      5-min Rain = 0
KES1 191432Z 17012G17KT 31/19 A2989 RMK A01 T03090192  RH  049%=      5-min Rain = 0
KES1 191433Z 19012G18KT 31/19 A2989 RMK A01 T03100192  RH  050%=      5-min Rain = 0
KES1 191434Z 19013KT 31/19 A2989 RMK A01 T03100190  RH  049%=      5-min Rain = 0
KES1 191435Z 19014KT 31/19 A2989 RMK A01 T03090190  RH  049%=      5-min Rain = 0
KES1 191436Z 20013KT 31/19 A2989 RMK A01 T03080190  RH  050%=      5-min Rain = 0
KES1 191437Z 18013KT 31/19 A2989 RMK A01 T03070191  RH  050%=      5-min Rain = 0
KES1 191438Z 19015KT 31/19 A2989 RMK A01 T03080191  RH  050%=      5-min Rain = 0
KES1 191439Z 19014KT 31/19 A2989 RMK A01 T03090191  RH  050%=      5-min Rain = 0
KES1 191440Z 19013KT 31/19 A2989 RMK A01 T03090190  RH  049%=      5-min Rain = 0
KES1 191441Z 19011KT 31/19 A2989 RMK A01 T03080190  RH  049%=      5-min Rain = 0
KES1 191442Z 20012KT 31/19 A2989 RMK A01 T03080191  RH  050%=      5-min Rain = 0
KES1 191443Z 21012KT 31/19 A2989 RMK A01 T03090191  RH  050%=      5-min Rain = 0
KES1 191444Z 21012KT 31/19 A2989 RMK A01 T03100192  RH  050%=      5-min Rain = 0
KES1 191445Z 19008KT 31/19 A2989 RMK A01 T03110192  RH  049%=      5-min Rain = 0
KES1 191446Z 18013KT 31/19 A2989 RMK A01 T03120192  RH  049%=      5-min Rain = 0
KES1 191447Z 18014KT 31/19 A2989 RMK A01 T03130192  RH  048%=      5-min Rain = 0
KES1 191448Z 19010KT 31/19 A2989 RMK A01 T03130192  RH  049%=      5-min Rain = 0
KES1 191449Z 19013KT 31/19 A2989 RMK A01 T03130192  RH  049%=      5-min Rain = 0
KES1 191450Z 18010KT 31/19 A2989 RMK A01 T03130192  RH  049%=      5-min Rain = 0
KES1 191451Z 19012KT 31/19 A2989 RMK A01 T03130192  RH  049%=      5-min Rain = 0
KES1 191452Z 19014KT 31/19 A2989 RMK A01 T03130192  RH  048%=      5-min Rain = 0
KES1 191453Z 19013KT 31/19 A2989 RMK A01 T03130191  RH  048%=      5-min Rain = 0
KES1 191454Z 18011KT 31/19 A2989 RMK A01 T03130193  RH  049%=      5-min Rain = 0
KES1 191455Z 18010KT 31/19 A2989 RMK A01 T03140193  RH  049%=      5-min Rain = 0
KES1 191456Z 19010G16KT 32/19 A2989 RMK A01 T03150193  RH  049%=      5-min Rain = 0
KES1 191457Z 18009KT 32/20 A2989 RMK A01 T03150195  RH  049%=      5-min Rain = 0
KES1 191458Z 18012KT 32/19 A2989 RMK A01 T03160194  RH  048%=      5-min Rain = 0
KES1 191459Z 18011KT 32/19 A2989 RMK A01 T03160194  RH  048%=      5-min Rain = 0
KES1 191500Z 18008KT 32/20 A2989 RMK A01 T03170196  RH  049%=      5-min Rain = 0
KES1 191501Z 19008KT 32/20 A2989 RMK A01 T03190196  RH  048%=      5-min Rain = 0
KES1 191502Z 19010KT 32/20 A2988 RMK A01 T03210196  RH  048%=      5-min Rain = 0
KES1 191503Z 20008KT 32/20 A2988 RMK A01 T03220196  RH  047%=      5-min Rain = 0
KES1 191504Z 17010KT 32/20 A2988 RMK A01 T03220195  RH  047%=      5-min Rain = 0
KES1 191505Z 17011KT 32/20 A2988 RMK A01 T03210196  RH  048%=      5-min Rain = 0
KES1 191506Z 19007KT 32/20 A2988 RMK A01 T03210196  RH  048%=      5-min Rain = 0
KES1 191507Z 19009G14KT 32/20 A2988 RMK A01 T03230197  RH  047%=      5-min Rain = 0
KES1 191508Z 18008KT 32/20 A2988 RMK A01 T03230197  RH  048%=      5-min Rain = 0
KES1 191509Z 17010KT 32/20 A2988 RMK A01 T03230198  RH  048%=      5-min Rain = 0
KES1 191510Z 18010KT 33/20 A2988 RMK A01 T03250198  RH  047%=      5-min Rain = 0
KES1 191511Z 18009KT 33/20 A2988 RMK A01 T03250196  RH  047%=      5-min Rain = 0
KES1 191512Z 20010KT 32/20 A2988 RMK A01 T03240195  RH  047%=      5-min Rain = 0
KES1 191513Z 19008G13KT 32/20 A2988 RMK A01 T03230196  RH  047%=      5-min Rain = 0
KES1 191514Z 17011KT 32/20 A2988 RMK A01 T03240197  RH  047%=      5-min Rain = 0
KES1 191515Z 19012KT 33/20 A2988 RMK A01 T03250195  RH  046%=      5-min Rain = 0
KES1 191516Z 17013KT 32/20 A2988 RMK A01 T03240195  RH  046%=      5-min Rain = 0
KES1 191517Z 17012KT 32/19 A2988 RMK A01 T03240194  RH  046%=      5-min Rain = 0
KES1 191518Z 19008KT 32/20 A2988 RMK A01 T03240197  RH  047%=      5-min Rain = 0
KES1 191519Z 20008KT 33/20 A2988 RMK A01 T03260196  RH  046%=      5-min Rain = 0
KES1 191520Z 20010KT 33/20 A2988 RMK A01 T03260196  RH  046%=      5-min Rain = 0
KES1 191521Z 19012G19KT 33/20 A2988 RMK A01 T03260195  RH  046%=      5-min Rain = 0
KES1 191522Z 19012KT 33/20 A2988 RMK A01 T03250195  RH  046%=      5-min Rain = 0
KES1 191523Z 19010G15KT 33/19 A2988 RMK A01 T03250193  RH  046%=      5-min Rain = 0
KES1 191524Z 20009KT 33/19 A2988 RMK A01 T03260194  RH  046%=      5-min Rain = 0
KES1 191525Z 20011G16KT 33/20 A2988 RMK A01 T03260195  RH  046%=      5-min Rain = 0
KES1 191526Z 19010KT 33/20 A2988 RMK A01 T03260196  RH  046%=      5-min Rain = 0
KES1 191527Z 19007KT 33/20 A2988 RMK A01 T03270197  RH  046%=      5-min Rain = 0
KES1 191528Z 19012KT 33/20 A2988 RMK A01 T03300196  RH  045%=      5-min Rain = 0
KES1 191529Z 20012KT 33/19 A2988 RMK A01 T03290194  RH  045%=      5-min Rain = 0
KES1 191530Z 19012KT 33/19 A2988 RMK A01 T03270193  RH  045%=      5-min Rain = 0
KES1 191531Z 18009KT 33/19 A2988 RMK A01 T03250194  RH  046%=      5-min Rain = 0
KES1 191532Z 19009KT 33/20 A2988 RMK A01 T03250196  RH  047%=      5-min Rain = 0
KES1 191533Z 16011KT 33/20 A2988 RMK A01 T03280198  RH  046%=      5-min Rain = 0
KES1 191534Z 18008G13KT 33/20 A2988 RMK A01 T03290197  RH  046%=      5-min Rain = 0
KES1 191535Z 15012KT 33/20 A2988 RMK A01 T03290197  RH  046%=      5-min Rain = 0
KES1 191536Z 18012G17KT 33/20 A2988 RMK A01 T03290198  RH  046%=      5-min Rain = 0
KES1 191537Z 19013KT 33/20 A2988 RMK A01 T03280195  RH  046%=      5-min Rain = 0
KES1 191538Z 19012KT 33/20 A2988 RMK A01 T03270197  RH  046%=      5-min Rain = 0
KES1 191539Z 19008KT 33/20 A2988 RMK A01 T03280196  RH  046%=      5-min Rain = 0
KES1 191540Z 19006KT 33/20 A2988 RMK A01 T03290200  RH  047%=      5-min Rain = 0
KES1 191541Z 19009KT 33/20 A2988 RMK A01 T03330200  RH  046%=      5-min Rain = 0
KES1 191542Z 21009KT 33/20 A2988 RMK A01 T03330199  RH  045%=      5-min Rain = 0
KES1 191543Z 19012KT 33/20 A2988 RMK A01 T03340199  RH  045%=      5-min Rain = 0
KES1 191544Z 19011KT 33/20 A2988 RMK A01 T03340200  RH  045%=      5-min Rain = 0
KES1 191545Z 19013KT 33/20 A2988 RMK A01 T03330199  RH  045%=      5-min Rain = 0
KES1 191546Z 18011KT 33/20 A2988 RMK A01 T03320201  RH  046%=      5-min Rain = 0
KES1 191547Z 17010KT 34/20 A2988 RMK A01 T03360201  RH  045%=      5-min Rain = 0
KES1 191548Z 17013KT 34/20 A2988 RMK A01 T03370198  RH  044%=      5-min Rain = 0
KES1 191549Z 18013G18KT 34/20 A2988 RMK A01 T03360197  RH  044%=      5-min Rain = 0
KES1 191550Z 18013KT 33/20 A2988 RMK A01 T03340197  RH  045%=      5-min Rain = 0
KES1 191551Z 18010KT 33/20 A2988 RMK A01 T03320196  RH  045%=      5-min Rain = 0
KES1 191552Z 19012KT 33/20 A2988 RMK A01 T03300197  RH  046%=      5-min Rain = 0
KES1 191553Z 19014KT 33/20 A2988 RMK A01 T03300196  RH  045%=      5-min Rain = 0
KES1 191554Z 21010KT 33/20 A2988 RMK A01 T03300198  RH  046%=      5-min Rain = 0
KES1 191555Z 22012KT 33/20 A2988 RMK A01 T03330196  RH  045%=      5-min Rain = 0
KES1 191556Z 21011KT 33/20 A2988 RMK A01 T03330196  RH  045%=      5-min Rain = 0
KES1 191557Z 20012KT 33/20 A2988 RMK A01 T03340197  RH  045%=      5-min Rain = 0
KES1 191558Z 20011KT 33/20 A2988 RMK A01 T03340197  RH  045%=      5-min Rain = 0
KES1 191559Z 20009KT 33/20 A2988 RMK A01 T03330196  RH  044%=      5-min Rain = 0
KES1 191600Z 18007G12KT 33/20 A2988 RMK A01 T03330199  RH  045%=      5-min Rain = 0
KES1 191601Z 18011G16KT 34/20 A2988 RMK A01 T03380200  RH  044%=      5-min Rain = 0
KES1 191602Z 20015KT 34/20 A2988 RMK A01 T03400198  RH  043%=      5-min Rain = 0
KES1 191603Z 20014KT 34/20 A2988 RMK A01 T03370196  RH  044%=      5-min Rain = 0
KES1 191604Z 19013KT 33/20 A2988 RMK A01 T03340196  RH  044%=      5-min Rain = 0
KES1 191605Z 20012KT 33/19 A2988 RMK A01 T03320194  RH  044%=      5-min Rain = 0
KES1 191606Z 20012KT 33/20 A2988 RMK A01 T03310196  RH  045%=      5-min Rain = 0
KES1 191607Z 18008KT 33/20 A2988 RMK A01 T03330199  RH  045%=      5-min Rain = 0
KES1 191608Z 18009KT 34/20 A2988 RMK A01 T03370199  RH  045%=      5-min Rain = 0
KES1 191609Z 19010KT 34/20 A2988 RMK A01 T03390199  RH  044%=      5-min Rain = 0
KES1 191610Z 19014KT 34/20 A2988 RMK A01 T03390198  RH  044%=      5-min Rain = 0
KES1 191611Z 20011G16KT 34/20 A2988 RMK A01 T03370198  RH  044%=      5-min Rain = 0
KES1 191612Z 18013KT 34/20 A2988 RMK A01 T03360199  RH  045%=      5-min Rain = 0
KES1 191613Z 19011G16KT 34/20 A2988 RMK A01 T03370201  RH  045%=      5-min Rain = 0
KES1 191614Z 19014KT 34/20 A2988 RMK A01 T03390198  RH  044%=      5-min Rain = 0
KES1 191615Z 20009KT 34/20 A2988 RMK A01 T03390198  RH  044%=      5-min Rain = 0
KES1 191616Z 21009KT 34/20 A2988 RMK A01 T03390197  RH  043%=      5-min Rain = 0
KES1 191617Z 19012KT 34/20 A2988 RMK A01 T03400197  RH  043%=      5-min Rain = 0
KES1 191618Z 18010KT 34/20 A2988 RMK A01 T03380199  RH  044%=      5-min Rain = 0
KES1 191619Z 16009KT 34/20 A2988 RMK A01 T03370201  RH  045%=      5-min Rain = 0
KES1 191620Z 16009G17KT 34/20 A2988 RMK A01 T03380204  RH  045%=      5-min Rain = 0
KES1 191621Z 16010KT 34/20 A2988 RMK A01 T03400202  RH  044%=      5-min Rain = 0
KES1 191622Z 17012G17KT 34/20 A2988 RMK A01 T03420203  RH  044%=      5-min Rain = 0
KES1 191623Z 18014G20KT 34/20 A2988 RMK A01 T03440202  RH  043%=      5-min Rain = 0
KES1 191624Z 18012KT 34/20 A2988 RMK A01 T03430202  RH  044%=      5-min Rain = 0
KES1 191625Z 17012KT 34/20 A2987 RMK A01 T03440203  RH  044%=      5-min Rain = 0
KES1 191626Z 18013KT 34/20 A2988 RMK A01 T03440203  RH  044%=      5-min Rain = 0
KES1 191627Z 18013KT 34/20 A2988 RMK A01 T03440201  RH  043%=      5-min Rain = 0
KES1 191628Z 18012KT 34/20 A2988 RMK A01 T03430199  RH  043%=      5-min Rain = 0
KES1 191629Z 15010G15KT 34/20 A2988 RMK A01 T03420202  RH  044%=      5-min Rain = 0
KES1 191630Z 16012KT 34/20 A2988 RMK A01 T03430201  RH  044%=      5-min Rain = 0
KES1 191631Z 16011G16KT 34/20 A2988 RMK A01 T03430201  RH  043%=      5-min Rain = 0
KES1 191632Z 17013KT 34/20 A2988 RMK A01 T03430200  RH  043%=      5-min Rain = 0
KES1 191633Z 17013KT 34/20 A2987 RMK A01 T03420200  RH  043%=      5-min Rain = 0
KES1 191634Z 17009KT 34/20 A2987 RMK A01 T03420202  RH  044%=      5-min Rain = 0
KES1 191635Z 18010G15KT 35/20 A2987 RMK A01 T03450203  RH  044%=      5-min Rain = 0
KES1 191636Z 19013KT 35/20 A2987 RMK A01 T03470201  RH  042%=      5-min Rain = 0
KES1 191637Z 18009KT 35/20 A2987 RMK A01 T03450201  RH  043%=      5-min Rain = 0
KES1 191638Z 16011KT 34/20 A2987 RMK A01 T03440201  RH  043%=      5-min Rain = 0
KES1 191639Z 17010KT 35/20 A2987 RMK A01 T03450202  RH  043%=      5-min Rain = 0
KES1 191640Z 16010KT 35/20 A2987 RMK A01 T03480204  RH  043%=      5-min Rain = 0
KES1 191641Z 16013G19KT 35/20 A2987 RMK A01 T03510204  RH  042%=      5-min Rain = 0
KES1 191642Z 16014G19KT 35/20 A2987 RMK A01 T03500202  RH  042%=      5-min Rain = 0
KES1 191643Z 16012KT 35/20 A2987 RMK A01 T03480201  RH  042%=      5-min Rain = 0
KES1 191644Z 17010KT 35/20 A2987 RMK A01 T03450200  RH  043%=      5-min Rain = 0
KES1 191645Z 17013KT 34/20 A2987 RMK A01 T03430200  RH  043%=      5-min Rain = 0
KES1 191646Z 18009KT 34/20 A2988 RMK A01 T03440202  RH  043%=      5-min Rain = 0
KES1 191647Z 18011G18KT 35/20 A2988 RMK A01 T03480203  RH  043%=      5-min Rain = 0
KES1 191648Z 18011KT 35/20 A2987 RMK A01 T03500201  RH  042%=      5-min Rain = 0
KES1 191649Z 16010KT 35/20 A2988 RMK A01 T03480202  RH  043%=      5-min Rain = 0
KES1 191650Z 16010KT 35/20 A2988 RMK A01 T03490202  RH  042%=      5-min Rain = 0
KES1 191651Z 17010KT 35/20 A2988 RMK A01 T03480200  RH  042%=      5-min Rain = 0
KES1 191652Z 16009KT 35/20 A2987 RMK A01 T03460201  RH  043%=      5-min Rain = 0
KES1 191653Z 17008KT 35/20 A2987 RMK A01 T03460201  RH  043%=      5-min Rain = 0
KES1 191654Z 16009KT 35/20 A2987 RMK A01 T03470200  RH  042%=      5-min Rain = 0
KES1 191655Z 17011KT 35/20 A2987 RMK A01 T03490203  RH  043%=      5-min Rain = 0
KES1 191656Z 16012G17KT 35/20 A2987 RMK A01 T03520202  RH  042%=      5-min Rain = 0
KES1 191657Z 16014KT 35/20 A2987 RMK A01 T03540200  RH  041%=      5-min Rain = 0
KES1 191658Z 18013KT 35/20 A2987 RMK A01 T03510197  RH  041%=      5-min Rain = 0
KES1 191659Z 19010KT 35/20 A2987 RMK A01 T03490198  RH  041%=      5-min Rain = 0
KES1 191700Z 19011KT 35/20 A2987 RMK A01 T03490198  RH  041%=      5-min Rain = 0
KES1 191701Z 18011G18KT 35/20 A2987 RMK A01 T03500199  RH  041%=      5-min Rain = 0
KES1 191702Z 17013KT 35/20 A2987 RMK A01 T03530201  RH  041%=      5-min Rain = 0
KES1 191703Z 16014KT 35/20 A2987 RMK A01 T03530201  RH  041%=      5-min Rain = 0
KES1 191704Z 16011KT 35/20 A2987 RMK A01 T03530201  RH  041%=      5-min Rain = 0
KES1 191705Z 17010G15KT 35/20 A2987 RMK A01 T03530202  RH  041%=      5-min Rain = 0
KES1 191706Z 19008KT 36/20 A2987 RMK A01 T03560203  RH  041%=      5-min Rain = 0
KES1 191707Z 21011KT 36/20 A2987 RMK A01 T03570201  RH  040%=      5-min Rain = 0
KES1 191708Z 20010KT 36/20 A2987 RMK A01 T03550201  RH  041%=      5-min Rain = 0
KES1 191709Z 17010KT 36/20 A2987 RMK A01 T03550202  RH  041%=      5-min Rain = 0
KES1 191710Z 17007KT 36/20 A2987 RMK A01 T03550199  RH  040%=      5-min Rain = 0
KES1 191711Z 16011KT 35/20 A2987 RMK A01 T03540199  RH  040%=      5-min Rain = 0
KES1 191712Z 18012KT 35/20 A2987 RMK A01 T03530198  RH  040%=      5-min Rain = 0
KES1 191713Z 17008KT 35/20 A2987 RMK A01 T03510197  RH  040%=      5-min Rain = 0
KES1 191714Z 17013KT 35/20 A2987 RMK A01 T03510197  RH  041%=      5-min Rain = 0
KES1 191715Z 18011KT 35/20 A2987 RMK A01 T03520195  RH  040%=      5-min Rain = 0
KES1 191716Z 17011KT 35/20 A2987 RMK A01 T03530197  RH  040%=      5-min Rain = 0
KES1 191717Z 17008G13KT 36/20 A2987 RMK A01 T03550197  RH  040%=      5-min Rain = 0
KES1 191718Z 17007KT 36/20 A2987 RMK A01 T03550199  RH  040%=      5-min Rain = 0
KES1 191719Z 17011KT 36/20 A2987 RMK A01 T03560201  RH  040%=      5-min Rain = 0
KES1 191720Z 16009KT 36/20 A2987 RMK A01 T03570203  RH  041%=      5-min Rain = 0
KES1 191721Z 17010G16KT 36/20 A2987 RMK A01 T03590203  RH  040%=      5-min Rain = 0
KES1 191722Z 16011KT 36/20 A2987 RMK A01 T03580201  RH  040%=      5-min Rain = 0
KES1 191723Z 18009KT 36/20 A2987 RMK A01 T03550201  RH  041%=      5-min Rain = 0
KES1 191724Z 18007KT 36/20 A2987 RMK A01 T03550202  RH  041%=      5-min Rain = 0
KES1 191725Z 16010KT 36/20 A2987 RMK A01 T03560202  RH  041%=      5-min Rain = 0
KES1 191726Z 15012KT 36/20 A2987 RMK A01 T03580202  RH  040%=      5-min Rain = 0
KES1 191727Z 16015KT 36/20 A2987 RMK A01 T03590202  RH  040%=      5-min Rain = 0
KES1 191728Z 16014KT 36/20 A2987 RMK A01 T03570200  RH  040%=      5-min Rain = 0
KES1 191729Z 15013KT 35/20 A2987 RMK A01 T03540202  RH  041%=      5-min Rain = 0
KES1 191730Z 15012KT 36/20 A2987 RMK A01 T03550203  RH  041%=      5-min Rain = 0
KES1 191731Z 15011KT 36/20 A2987 RMK A01 T03570201  RH  040%=      5-min Rain = 0
KES1 191732Z 17010KT 36/20 A2987 RMK A01 T03570203  RH  041%=      5-min Rain = 0
KES1 191733Z 19010KT 36/20 A2987 RMK A01 T03610202  RH  040%=      5-min Rain = 0
KES1 191734Z 19011KT 36/20 A2987 RMK A01 T03620199  RH  039%=      5-min Rain = 0
KES1 191735Z 18007G12KT 36/20 A2987 RMK A01 T03620203  RH  040%=      5-min Rain = 0
KES1 191736Z 19011KT 37/20 A2987 RMK A01 T03650202  RH  039%=      5-min Rain = 0
KES1 191737Z 19010KT 36/20 A2987 RMK A01 T03620198  RH  038%=      5-min Rain = 0
KES1 191738Z 20010KT 36/20 A2987 RMK A01 T03600198  RH  039%=      5-min Rain = 0
KES1 191739Z 19007KT 36/20 A2987 RMK A01 T03630201  RH  039%=      5-min Rain = 0
KES1 191740Z 19008KT 37/20 A2987 RMK A01 T03650199  RH  038%=      5-min Rain = 0
KES1 191741Z 19008KT 36/20 A2987 RMK A01 T03640201  RH  039%=      5-min Rain = 0
KES1 191742Z 17010KT 37/20 A2987 RMK A01 T03660203  RH  039%=      5-min Rain = 0
KES1 191743Z 19012KT 37/20 A2987 RMK A01 T03670200  RH  038%=      5-min Rain = 0
KES1 191744Z 20011KT 36/20 A2987 RMK A01 T03640198  RH  038%=      5-min Rain = 0
KES1 191745Z 20012KT 36/20 A2987 RMK A01 T03630195  RH  038%=      5-min Rain = 0
KES1 191746Z 18010KT 36/20 A2987 RMK A01 T03610196  RH  038%=      5-min Rain = 0
KES1 191747Z 18011KT 36/20 A2987 RMK A01 T03610198  RH  039%=      5-min Rain = 0
KES1 191748Z 18013G18KT 36/20 A2987 RMK A01 T03620197  RH  038%=      5-min Rain = 0
KES1 191749Z 18015KT 36/20 A2987 RMK A01 T03600197  RH  039%=      5-min Rain = 0
KES1 191750Z 17015G20KT 36/20 A2987 RMK A01 T03610198  RH  039%=      5-min Rain = 0
KES1 191751Z 17015KT 36/20 A2987 RMK A01 T03600198  RH  039%=      5-min Rain = 0
KES1 191752Z 17013KT 36/20 A2987 RMK A01 T03600197  RH  038%=      5-min Rain = 0
KES1 191753Z 17011KT 36/20 A2987 RMK A01 T03580197  RH  039%=      5-min Rain = 0
KES1 191754Z 16011KT 36/20 A2987 RMK A01 T03600200  RH  039%=      5-min Rain = 0
KES1 191755Z 17009KT 36/20 A2987 RMK A01 T03630198  RH  038%=      5-min Rain = 0
KES1 191756Z 17012KT 36/20 A2987 RMK A01 T03630199  RH  038%=      5-min Rain = 0
KES1 191757Z 16013KT 36/20 A2987 RMK A01 T03630200  RH  039%=      5-min Rain = 0
KES1 191758Z 16014KT 37/20 A2987 RMK A01 T03650200  RH  038%=      5-min Rain = 0
KES1 191759Z 15012KT 37/20 A2987 RMK A01 T03650202  RH  039%=      5-min Rain = 0
KES1 191800Z 18015KT 37/20 A2987 RMK A01 T03660199  RH  038%=      5-min Rain = 0
KES1 191801Z 17013KT 37/20 A2987 RMK A01 T03660199  RH  038%=      5-min Rain = 0
KES1 191802Z 17009KT 37/20 A2987 RMK A01 T03650198  RH  038%=      5-min Rain = 0
KES1 191803Z 16011G17KT 37/20 A2987 RMK A01 T03650200  RH  038%=      5-min Rain = 0
KES1 191804Z 16012KT 37/20 A2986 RMK A01 T03660200  RH  038%=      5-min Rain = 0
KES1 191805Z 16011G17KT 37/20 A2986 RMK A01 T03680200  RH  038%=      5-min Rain = 0
KES1 191806Z 18009KT 37/20 A2986 RMK A01 T03690202  RH  038%=      5-min Rain = 0
KES1 191807Z 19012G18KT 37/20 A2986 RMK A01 T03740203  RH  037%=      5-min Rain = 0
KES1 191808Z 19012KT 38/20 A2986 RMK A01 T03750200  RH  036%=      5-min Rain = 0
KES1 191809Z 19013KT 37/19 A2986 RMK A01 T03730194  RH  035%=      5-min Rain = 0
KES1 191810Z 19010KT 37/19 A2986 RMK A01 T03700194  RH  036%=      5-min Rain = 0
KES1 191811Z 18011KT 37/19 A2986 RMK A01 T03700192  RH  035%=      5-min Rain = 0
KES1 191812Z 18008G13KT 37/19 A2986 RMK A01 T03690192  RH  036%=      5-min Rain = 0
KES1 191813Z 19010KT 37/19 A2986 RMK A01 T03700194  RH  036%=      5-min Rain = 0
KES1 191814Z 20011G18KT 37/20 A2986 RMK A01 T03690195  RH  036%=      5-min Rain = 0
KES1 191815Z 18014G20KT 37/20 A2986 RMK A01 T03680196  RH  037%=      5-min Rain = 0
KES1 191816Z 19012KT 37/20 A2986 RMK A01 T03700197  RH  037%=      5-min Rain = 0
KES1 191817Z 18014KT 37/20 A2986 RMK A01 T03700196  RH  036%=      5-min Rain = 0
KES1 191818Z 18014KT 37/20 A2986 RMK A01 T03670195  RH  037%=      5-min Rain = 0
KES1 191819Z 18010KT 37/20 A2986 RMK A01 T03650196  RH  037%=      5-min Rain = 0
KES1 191820Z 17008KT 36/20 A2986 RMK A01 T03630198  RH  038%=      5-min Rain = 0
KES1 191821Z 17011KT 37/20 A2986 RMK A01 T03660201  RH  038%=      5-min Rain = 0
KES1 191822Z 16013KT 37/20 A2986 RMK A01 T03700200  RH  037%=      5-min Rain = 0
KES1 191823Z 17010KT 37/20 A2986 RMK A01 T03700201  RH  037%=      5-min Rain = 0
KES1 191824Z 19014KT 37/20 A2986 RMK A01 T03700195  RH  036%=      5-min Rain = 0
KES1 191825Z 18012G18KT 37/19 A2986 RMK A01 T03690194  RH  036%=      5-min Rain = 0
KES1 191826Z 16013G18KT 37/19 A2986 RMK A01 T03700194  RH  036%=      5-min Rain = 0
KES1 191827Z 16010KT 37/20 A2986 RMK A01 T03730196  RH  036%=      5-min Rain = 0
KES1 191828Z 17009KT 37/20 A2986 RMK A01 T03740198  RH  036%=      5-min Rain = 0
KES1 191829Z 18009KT 38/20 A2986 RMK A01 T03770196  RH  035%=      5-min Rain = 0
KES1 191830Z 20009KT 38/20 A2986 RMK A01 T03780199  RH  035%=      5-min Rain = 0
KES1 191831Z 20008KT 38/20 A2986 RMK A01 T03780196  RH  035%=      5-min Rain = 0
KES1 191832Z 18008KT 38/20 A2986 RMK A01 T03770196  RH  035%=      5-min Rain = 0
KES1 191833Z 16010KT 38/20 A2986 RMK A01 T03760199  RH  036%=      5-min Rain = 0
KES1 191834Z 15013KT 38/20 A2986 RMK A01 T03760198  RH  035%=      5-min Rain = 0
KES1 191835Z 15010KT 37/20 A2986 RMK A01 T03740198  RH  036%=      5-min Rain = 0
KES1 191836Z 15012KT 37/20 A2986 RMK A01 T03740197  RH  036%=      5-min Rain = 0
KES1 191837Z 16014G19KT 38/20 A2986 RMK A01 T03750195  RH  035%=      5-min Rain = 0
KES1 191838Z 17014KT 38/20 A2986 RMK A01 T03760196  RH  035%=      5-min Rain = 0
KES1 191839Z 16010KT 38/20 A2986 RMK A01 T03760196  RH  035%=      5-min Rain = 0
KES1 191840Z 16007KT 37/20 A2986 RMK A01 T03740195  RH  035%=      5-min Rain = 0
KES1 191841Z 15009G18KT 37/20 A2986 RMK A01 T03730198  RH  036%=      5-min Rain = 0
KES1 191842Z 15015KT 38/20 A2986 RMK A01 T03760199  RH  036%=      5-min Rain = 0
KES1 191843Z 16013KT 38/20 A2986 RMK A01 T03750197  RH  036%=      5-min Rain = 0
KES1 191844Z 16015KT 37/20 A2986 RMK A01 T03740199  RH  036%=      5-min Rain = 0
KES1 191845Z 15013KT 37/20 A2985 RMK A01 T03740198  RH  036%=      5-min Rain = 0
KES1 191846Z 15016KT 37/20 A2985 RMK A01 T03740197  RH  036%=      5-min Rain = 0
KES1 191847Z 14014KT 37/20 A2985 RMK A01 T03720197  RH  036%=      5-min Rain = 0
KES1 191848Z 15014KT 37/20 A2985 RMK A01 T03710199  RH  037%=      5-min Rain = 0
KES1 191849Z 17014KT 37/20 A2985 RMK A01 T03730196  RH  036%=      5-min Rain = 0
KES1 191850Z 16014KT 37/20 A2985 RMK A01 T03740195  RH  035%=      5-min Rain = 0
KES1 191851Z 16015KT 38/20 A2985 RMK A01 T03750195  RH  035%=      5-min Rain = 0
KES1 191852Z 15010G15KT 38/19 A2985 RMK A01 T03760193  RH  034%=      5-min Rain = 0
KES1 191853Z 16009KT 38/20 A2985 RMK A01 T03760196  RH  035%=      5-min Rain = 0
KES1 191854Z 17014KT 38/20 A2985 RMK A01 T03800198  RH  035%=      5-min Rain = 0
KES1 191855Z 16013KT 38/20 A2985 RMK A01 T03820196  RH  034%=      5-min Rain = 0
KES1 191856Z 16010KT 38/20 A2985 RMK A01 T03810199  RH  035%=      5-min Rain = 0
KES1 191857Z 15012KT 38/20 A2985 RMK A01 T03810197  RH  035%=      5-min Rain = 0
KES1 191858Z 16013KT 38/20 A2985 RMK A01 T03790195  RH  034%=      5-min Rain = 0
KES1 191859Z 15010KT 38/20 A2985 RMK A01 T03780195  RH  035%=      5-min Rain = 0
KES1 191900Z 15011G21KT 38/20 A2985 RMK A01 T03790199  RH  035%=      5-min Rain = 0
KES1 191901Z 15016KT 38/20 A2985 RMK A01 T03810198  RH  035%=      5-min Rain = 0
KES1 191902Z 14013KT 38/20 A2985 RMK A01 T03790197  RH  035%=      5-min Rain = 0
KES1 191903Z 15012KT 38/20 A2985 RMK A01 T03780196  RH  035%=      5-min Rain = 0
KES1 191904Z 15012G19KT 38/20 A2985 RMK A01 T03760197  RH  035%=      5-min Rain = 0
KES1 191905Z 15017KT 38/20 A2985 RMK A01 T03780196  RH  035%=      5-min Rain = 0
KES1 191906Z 15017KT 38/20 A2985 RMK A01 T03770197  RH  035%=      5-min Rain = 0
KES1 191907Z 15018KT 38/20 A2985 RMK A01 T03770197  RH  035%=      5-min Rain = 0
KES1 191908Z 14014KT 38/20 A2985 RMK A01 T03760195  RH  035%=      5-min Rain = 0
KES1 191909Z 15011KT 37/20 A2985 RMK A01 T03740195  RH  035%=      5-min Rain = 0
KES1 191910Z 16013KT 38/20 A2984 RMK A01 T03750195  RH  035%=      5-min Rain = 0
KES1 191911Z 15014G19KT 38/20 A2984 RMK A01 T03790198  RH  035%=      5-min Rain = 0
KES1 191912Z 16016KT 38/20 A2984 RMK A01 T03820198  RH  034%=      5-min Rain = 0
KES1 191913Z 17018KT 38/19 A2985 RMK A01 T03810194  RH  034%=      5-min Rain = 0
KES1 191914Z 16011G16KT 38/20 A2985 RMK A01 T03790195  RH  034%=      5-min Rain = 0
KES1 191915Z 18010KT 38/20 A2984 RMK A01 T03780195  RH  034%=      5-min Rain = 0
KES1 191916Z 18015KT 38/20 A2984 RMK A01 T03800195  RH  034%=      5-min Rain = 0
KES1 191917Z 15015KT 38/20 A2984 RMK A01 T03800198  RH  035%=      5-min Rain = 0
KES1 191918Z 14014KT 38/20 A2984 RMK A01 T03810197  RH  035%=      5-min Rain = 0
KES1 191919Z 15014KT 38/20 A2984 RMK A01 T03820198  RH  034%=      5-min Rain = 0
KES1 191920Z 15014KT 38/20 A2984 RMK A01 T03830195  RH  034%=      5-min Rain = 0
KES1 191921Z 15012G17KT 38/20 A2984 RMK A01 T03830196  RH  034%=      5-min Rain = 0
KES1 191922Z 15014KT 38/20 A2984 RMK A01 T03830197  RH  034%=      5-min Rain = 0
KES1 191923Z 16014KT 38/20 A2984 RMK A01 T03840195  RH  033%=      5-min Rain = 0
KES1 191924Z 16010KT 38/19 A2984 RMK A01 T03800193  RH  034%=      5-min Rain = 0
KES1 191925Z 16013KT 38/20 A2984 RMK A01 T03800198  RH  035%=      5-min Rain = 0
KES1 191926Z 16013G19KT 38/20 A2984 RMK A01 T03830198  RH  034%=      5-min Rain = 0
KES1 191927Z 16011KT 38/20 A2984 RMK A01 T03840199  RH  034%=      5-min Rain = 0
KES1 191928Z 15013KT 39/20 A2984 RMK A01 T03860200  RH  034%=      5-min Rain = 0
KES1 191929Z 16012G17KT 39/20 A2984 RMK A01 T03860199  RH  034%=      5-min Rain = 0
KES1 191930Z 16007KT 38/20 A2984 RMK A01 T03840199  RH  034%=      5-min Rain = 0
KES1 191931Z 14013KT 39/20 A2984 RMK A01 T03850199  RH  034%=      5-min Rain = 0
KES1 191932Z 14017G22KT 39/20 A2984 RMK A01 T03850196  RH  033%=      5-min Rain = 0
KES1 191933Z 15017G22KT 38/20 A2984 RMK A01 T03830195  RH  034%=      5-min Rain = 0
KES1 191934Z 15015G21KT 38/20 A2984 RMK A01 T03820196  RH  034%=      5-min Rain = 0
KES1 191935Z 15013KT 38/19 A2984 RMK A01 T03830194  RH  034%=      5-min Rain = 0
KES1 191936Z 15011G16KT 38/19 A2984 RMK A01 T03830194  RH  033%=      5-min Rain = 0
KES1 191937Z 15017G22KT 38/20 A2984 RMK A01 T03830196  RH  034%=      5-min Rain = 0
KES1 191938Z 15016KT 38/19 A2984 RMK A01 T03840193  RH  033%=      5-min Rain = 0
KES1 191939Z 15016KT 38/19 A2984 RMK A01 T03820193  RH  033%=      5-min Rain = 0
KES1 191940Z 15015KT 38/19 A2984 RMK A01 T03810192  RH  033%=      5-min Rain = 0
KES1 191941Z 15012KT 38/19 A2984 RMK A01 T03810192  RH  033%=      5-min Rain = 0
KES1 191942Z 18013G18KT 38/19 A2984 RMK A01 T03830193  RH  033%=      5-min Rain = 0
KES1 191943Z 18014KT 39/19 A2984 RMK A01 T03850191  RH  033%=      5-min Rain = 0
KES1 191944Z 18015G20KT 39/19 A2984 RMK A01 T03850190  RH  032%=      5-min Rain = 0
KES1 191945Z 18013G19KT 38/19 A2984 RMK A01 T03840191  RH  033%=      5-min Rain = 0
KES1 191946Z 17008KT 39/19 A2984 RMK A01 T03860192  RH  032%=      5-min Rain = 0
KES1 191947Z 17009KT 39/19 A2984 RMK A01 T03880193  RH  032%=      5-min Rain = 0
KES1 191948Z 14016KT 39/19 A2984 RMK A01 T03890194  RH  032%=      5-min Rain = 0
KES1 191949Z 15014KT 39/19 A2984 RMK A01 T03860194  RH  033%=      5-min Rain = 0
KES1 191950Z 15016KT 39/19 A2984 RMK A01 T03850194  RH  033%=      5-min Rain = 0
KES1 191951Z 14015KT 38/19 A2984 RMK A01 T03820193  RH  033%=      5-min Rain = 0
KES1 191952Z 15012KT 38/19 A2983 RMK A01 T03810194  RH  034%=      5-min Rain = 0
KES1 191953Z 17012KT 38/20 A2984 RMK A01 T03830196  RH  034%=      5-min Rain = 0
KES1 191954Z 15010KT 39/20 A2984 RMK A01 T03870197  RH  033%=      5-min Rain = 0
KES1 191955Z 14015KT 39/19 A2984 RMK A01 T03880194  RH  033%=      5-min Rain = 0
KES1 191956Z 14012G17KT 39/19 A2984 RMK A01 T03860193  RH  033%=      5-min Rain = 0
KES1 191957Z 15017KT 39/19 A2983 RMK A01 T03850192  RH  033%=      5-min Rain = 0
KES1 191958Z 15019KT 38/19 A2984 RMK A01 T03830190  RH  033%=      5-min Rain = 0
KES1 191959Z 15012KT 38/19 A2984 RMK A01 T03820193  RH  034%=      5-min Rain = 0
KES1 192000Z 14014KT 38/19 A2984 RMK A01 T03840194  RH  033%=      5-min Rain = 0
KES1 192001Z 15012KT 39/19 A2984 RMK A01 T03850194  RH  033%=      5-min Rain = 0
KES1 192002Z 16012G20KT 39/19 A2984 RMK A01 T03850194  RH  033%=      5-min Rain = 0
KES1 192003Z 16012G18KT 39/19 A2984 RMK A01 T03850190  RH  032%=      5-min Rain = 0
KES1 192004Z 16012KT 39/19 A2984 RMK A01 T03850192  RH  033%=      5-min Rain = 0
KES1 192005Z 15014G19KT 39/19 A2983 RMK A01 T03860191  RH  032%=      5-min Rain = 0
KES1 192006Z 13014G19KT 39/19 A2983 RMK A01 T03870192  RH  032%=      5-min Rain = 0
KES1 192007Z 16015G20KT 39/19 A2984 RMK A01 T03880193  RH  032%=      5-min Rain = 0
KES1 192008Z 16013KT 39/19 A2983 RMK A01 T03880191  RH  032%=      5-min Rain = 0
KES1 192009Z 16013G18KT 39/19 A2984 RMK A01 T03870194  RH  033%=      5-min Rain = 0
KES1 192010Z 16017KT 39/19 A2983 RMK A01 T03890191  RH  032%=      5-min Rain = 0
KES1 192011Z 17010KT 39/19 A2984 RMK A01 T03880192  RH  032%=      5-min Rain = 0
KES1 192012Z 15013G18KT 39/19 A2984 RMK A01 T03870189  RH  032%=      5-min Rain = 0
KES1 192013Z 15016KT 39/19 A2983 RMK A01 T03860189  RH  032%=      5-min Rain = 0
KES1 192014Z 15015KT 39/19 A2983 RMK A01 T03850191  RH  032%=      5-min Rain = 0
KES1 192015Z 16016KT 39/19 A2983 RMK A01 T03870194  RH  033%=      5-min Rain = 0
KES1 192016Z 16014G19KT 39/19 A2983 RMK A01 T03890194  RH  032%=      5-min Rain = 0
KES1 192017Z 16010G15KT 39/20 A2983 RMK A01 T03880195  RH  033%=      5-min Rain = 0
KES1 192018Z 16011KT 39/20 A2983 RMK A01 T03890195  RH  033%=      5-min Rain = 0
KES1 192019Z 15012G17KT 39/19 A2983 RMK A01 T03890192  RH  032%=      5-min Rain = 0
KES1 192020Z 16018KT 39/19 A2983 RMK A01 T03880188  RH  031%=      5-min Rain = 0
KES1 192021Z 15016KT 39/19 A2983 RMK A01 T03860187  RH  032%=      5-min Rain = 0
KES1 192022Z 16016KT 39/19 A2983 RMK A01 T03860187  RH  032%=      5-min Rain = 0
KES1 192023Z 16015KT 39/19 A2983 RMK A01 T03860187  RH  031%=      5-min Rain = 0
KES1 192024Z 15014KT 39/19 A2983 RMK A01 T03870185  RH  031%=      5-min Rain = 0
KES1 192025Z 16013KT 39/19 A2983 RMK A01 T03870186  RH  031%=      5-min Rain = 0
KES1 192026Z 16013KT 39/19 A2983 RMK A01 T03870186  RH  031%=      5-min Rain = 0
KES1 192027Z 14014G19KT 39/19 A2983 RMK A01 T03870188  RH  031%=      5-min Rain = 0
KES1 192028Z 17010KT 39/19 A2983 RMK A01 T03900189  RH  031%=      5-min Rain = 0
KES1 192029Z 17010KT 39/19 A2983 RMK A01 T03930189  RH  031%=      5-min Rain = 0
KES1 192030Z 15011KT 39/19 A2983 RMK A01 T03940189  RH  031%=      5-min Rain = 0
KES1 192031Z 15013KT 39/19 A2983 RMK A01 T03930191  RH  031%=      5-min Rain = 0
KES1 192032Z 17008KT 39/19 A2983 RMK A01 T03940191  RH  031%=      5-min Rain = 0
KES1 192033Z 18006KT 40/19 A2983 RMK A01 T03970193  RH  031%=      5-min Rain = 0
KES1 192034Z 18012KT 40/19 A2983 RMK A01 T03990192  RH  030%=      5-min Rain = 0
KES1 192035Z 17015KT 40/19 A2983 RMK A01 T03980190  RH  030%=      5-min Rain = 0
KES1 192036Z 15011KT 39/19 A2983 RMK A01 T03920189  RH  031%=      5-min Rain = 0
KES1 192037Z 15014KT 39/19 A2983 RMK A01 T03910189  RH  031%=      5-min Rain = 0
KES1 192038Z 16012KT 39/19 A2983 RMK A01 T03900188  RH  031%=      5-min Rain = 0
KES1 192039Z 14009KT 39/19 A2983 RMK A01 T03900188  RH  031%=      5-min Rain = 0
KES1 192040Z 18011KT 39/19 A2983 RMK A01 T03910190  RH  031%=      5-min Rain = 0
KES1 192041Z 16010KT 39/19 A2982 RMK A01 T03940186  RH  030%=      5-min Rain = 0
KES1 192042Z 17011KT 40/19 A2982 RMK A01 T03950190  RH  030%=      5-min Rain = 0
KES1 192043Z 17012G17KT 40/19 A2982 RMK A01 T04010190  RH  030%=      5-min Rain = 0
KES1 192044Z 15013KT 40/19 A2982 RMK A01 T04000187  RH  029%=      5-min Rain = 0
KES1 192045Z 15013KT 40/19 A2982 RMK A01 T03970189  RH  030%=      5-min Rain = 0
KES1 192046Z 15011KT 40/19 A2982 RMK A01 T03950187  RH  030%=      5-min Rain = 0
KES1 192047Z 16013G18KT 39/19 A2982 RMK A01 T03940189  RH  031%=      5-min Rain = 0
KES1 192048Z 17013KT 40/19 A2982 RMK A01 T03950188  RH  030%=      5-min Rain = 0
KES1 192049Z 16011KT 40/19 A2982 RMK A01 T03960187  RH  030%=      5-min Rain = 0
KES1 192050Z 16012G17KT 40/19 A2982 RMK A01 T03960185  RH  030%=      5-min Rain = 0
KES1 192051Z 18011KT 40/19 A2982 RMK A01 T03960186  RH  030%=      5-min Rain = 0
KES1 192052Z 17011G17KT 40/19 A2982 RMK A01 T03970186  RH  030%=      5-min Rain = 0
KES1 192053Z 16014KT 40/18 A2982 RMK A01 T03980183  RH  029%=      5-min Rain = 0
KES1 192054Z 16011KT 40/18 A2982 RMK A01 T03950183  RH  029%=      5-min Rain = 0
KES1 192055Z 18013G20KT 39/19 A2982 RMK A01 T03930185  RH  030%=      5-min Rain = 0
KES1 192056Z 17014G19KT 39/19 A2982 RMK A01 T03930186  RH  030%=      5-min Rain = 0
KES1 192057Z 17014KT 39/18 A2982 RMK A01 T03940184  RH  030%=      5-min Rain = 0
KES1 192058Z 17012G17KT 39/18 A2982 RMK A01 T03940184  RH  029%=      5-min Rain = 0
KES1 192059Z 16013KT 40/19 A2982 RMK A01 T03950185  RH  029%=      5-min Rain = 0
KES1 192100Z 15014KT 40/18 A2982 RMK A01 T03950183  RH  029%=      5-min Rain = 0
KES1 192101Z 14016KT 39/18 A2982 RMK A01 T03930184  RH  030%=      5-min Rain = 0
KES1 192102Z 15016G22KT 39/19 A2982 RMK A01 T03920186  RH  030%=      5-min Rain = 0
KES1 192103Z 16019KT 39/19 A2982 RMK A01 T03940185  RH  030%=      5-min Rain = 0
KES1 192104Z 17016KT 39/19 A2982 RMK A01 T03940185  RH  030%=      5-min Rain = 0
KES1 192105Z 16011KT 39/18 A2982 RMK A01 T03920184  RH  030%=      5-min Rain = 0
KES1 192106Z 15011KT 39/19 A2982 RMK A01 T03920187  RH  030%=      5-min Rain = 0
KES1 192107Z 16013KT 40/19 A2982 RMK A01 T03950186  RH  030%=      5-min Rain = 0
KES1 192108Z 15013KT 39/18 A2982 RMK A01 T03940183  RH  029%=      5-min Rain = 0
KES1 192109Z 15010KT 39/19 A2982 RMK A01 T03930185  RH  030%=      5-min Rain = 0
KES1 192110Z 16009KT 39/18 A2982 RMK A01 T03930183  RH  029%=      5-min Rain = 0
KES1 192111Z 16011KT 39/18 A2982 RMK A01 T03940184  RH  030%=      5-min Rain = 0
KES1 192112Z 16010KT 40/18 A2982 RMK A01 T03950183  RH  029%=      5-min Rain = 0
KES1 192113Z 15011KT 40/18 A2982 RMK A01 T03960183  RH  029%=      5-min Rain = 0
KES1 192114Z 15012KT 40/18 A2982 RMK A01 T03950182  RH  029%=      5-min Rain = 0
KES1 192115Z 15010G15KT 40/18 A2982 RMK A01 T03960182  RH  029%=      5-min Rain = 0
KES1 192116Z 18011KT 40/18 A2981 RMK A01 T03980184  RH  029%=      5-min Rain = 0
KES1 192117Z 18009KT 40/18 A2981 RMK A01 T03990183  RH  029%=      5-min Rain = 0
KES1 192118Z 17010KT 40/18 A2982 RMK A01 T03980183  RH  029%=      5-min Rain = 0
KES1 192119Z 15014G19KT 40/18 A2981 RMK A01 T03980182  RH  029%=      5-min Rain = 0
KES1 192120Z 16012KT 40/18 A2982 RMK A01 T03970184  RH  029%=      5-min Rain = 0
KES1 192121Z 17010G17KT 40/18 A2981 RMK A01 T03990184  RH  029%=      5-min Rain = 0
KES1 192122Z 18013G20KT 40/18 A2981 RMK A01 T04000184  RH  029%=      5-min Rain = 0
KES1 192123Z 18012G17KT 40/18 A2981 RMK A01 T04000181  RH  028%=      5-min Rain = 0
KES1 192124Z 19009G14KT 40/18 A2981 RMK A01 T03980181  RH  028%=      5-min Rain = 0
KES1 192125Z 17007KT 40/18 A2981 RMK A01 T03950184  RH  029%=      5-min Rain = 0
KES1 192126Z 16011G17KT 40/19 A2981 RMK A01 T03980187  RH  029%=      5-min Rain = 0
KES1 192127Z 14016KT 40/18 A2981 RMK A01 T04020181  RH  028%=      5-min Rain = 0
KES1 192128Z 15013G19KT 40/18 A2981 RMK A01 T04000180  RH  028%=      5-min Rain = 0
KES1 192129Z 16013G18KT 40/18 A2981 RMK A01 T04000182  RH  028%=      5-min Rain = 0
KES1 192130Z 17012KT 40/18 A2981 RMK A01 T04010181  RH  028%=      5-min Rain = 0
KES1 192131Z 16014KT 40/18 A2981 RMK A01 T03990180  RH  028%=      5-min Rain = 0
KES1 192132Z 16013KT 40/18 A2981 RMK A01 T03970182  RH  029%=      5-min Rain = 0
KES1 192133Z 16013KT 40/18 A2981 RMK A01 T03950183  RH  029%=      5-min Rain = 0
KES1 192134Z 15016KT 40/18 A2981 RMK A01 T03950184  RH  030%=      5-min Rain = 0
KES1 192135Z 15013KT 40/18 A2981 RMK A01 T03960182  RH  029%=      5-min Rain = 0
KES1 192136Z 17010KT 40/19 A2981 RMK A01 T03980185  RH  029%=      5-min Rain = 0
KES1 192137Z 16010KT 40/18 A2981 RMK A01 T03990181  RH  028%=      5-min Rain = 0
KES1 192138Z 17009KT 40/18 A2981 RMK A01 T03970183  RH  029%=      5-min Rain = 0
KES1 192139Z 16011G17KT 40/19 A2981 RMK A01 T03970185  RH  029%=      5-min Rain = 0
KES1 192140Z 15015G20KT 40/18 A2981 RMK A01 T03990181  RH  028%=      5-min Rain = 0
KES1 192141Z 16013KT 40/18 A2981 RMK A01 T03990181  RH  028%=      5-min Rain = 0
KES1 192142Z 15013KT 40/18 A2981 RMK A01 T03970178  RH  028%=      5-min Rain = 0
KES1 192143Z 16012KT 40/18 A298 RMK A01 T03950179  RH  029%=      5-min Rain = 0
KES1 192144Z 16009KT 40/18 A2981 RMK A01 T03960183  RH  029%=      5-min Rain = 0
KES1 192145Z 16011KT 40/18 A2981 RMK A01 T04000183  RH  028%=      5-min Rain = 0
KES1 192146Z 17014KT 40/18 A2981 RMK A01 T04000181  RH  028%=      5-min Rain = 0
KES1 192147Z 19011G16KT 40/18 A2981 RMK A01 T04000182  RH  028%=      5-min Rain = 0
KES1 192148Z 19013KT 40/18 A298 RMK A01 T04000180  RH  028%=      5-min Rain = 0
KES1 192149Z 17013KT 40/18 A2981 RMK A01 T03990180  RH  028%=      5-min Rain = 0
KES1 192150Z 15011KT 40/18 A2981 RMK A01 T03980183  RH  029%=      5-min Rain = 0
KES1 192151Z 14015KT 40/18 A298 RMK A01 T03980182  RH  029%=      5-min Rain = 0
KES1 192152Z 15015KT 40/18 A298 RMK A01 T03980179  RH  028%=      5-min Rain = 0
KES1 192153Z 15012KT 40/18 A298 RMK A01 T03960180  RH  028%=      5-min Rain = 0
KES1 192154Z 15014KT 40/18 A298 RMK A01 T03960182  RH  029%=      5-min Rain = 0
KES1 192155Z 17010KT 40/18 A298 RMK A01 T03980182  RH  029%=      5-min Rain = 0
KES1 192156Z 18015G20KT 40/18 A298 RMK A01 T04010182  RH  028%=      5-min Rain = 0
KES1 192157Z 18013KT 40/18 A298 RMK A01 T04000180  RH  028%=      5-min Rain = 0
KES1 192158Z 20010KT 40/18 A298 RMK A01 T03990181  RH  028%=      5-min Rain = 0
KES1 192159Z 17008KT 40/18 A298 RMK A01 T03990181  RH  028%=      5-min Rain = 0
KES1 192200Z 15007G14KT 40/19 A298 RMK A01 T04000185  RH  029%=      5-min Rain = 0
KES1 192201Z 15012KT 40/18 A298 RMK A01 T04020181  RH  028%=      5-min Rain = 0
KES1 192202Z 15009KT 40/18 A298 RMK A01 T04010181  RH  028%=      5-min Rain = 0
KES1 192203Z 15010KT 40/18 A298 RMK A01 T04010182  RH  028%=      5-min Rain = 0
KES1 192204Z 16008KT 40/18 A298 RMK A01 T04020181  RH  028%=      5-min Rain = 0
KES1 192205Z 16012G19KT 40/18 A298 RMK A01 T04030183  RH  028%=      5-min Rain = 0
KES1 192206Z 17013KT 40/18 A298 RMK A01 T04040180  RH  027%=      5-min Rain = 0
KES1 192207Z 18015KT 40/18 A298 RMK A01 T04030179  RH  027%=      5-min Rain = 0
KES1 192208Z 18010G15KT 40/18 A298 RMK A01 T04010178  RH  027%=      5-min Rain = 0
KES1 192209Z 18012KT 40/18 A298 RMK A01 T03990176  RH  027%=      5-min Rain = 0
KES1 192210Z 16012G18KT 40/18 A298 RMK A01 T03980178  RH  028%=      5-min Rain = 0
KES1 192211Z 15017KT 40/18 A298 RMK A01 T03980176  RH  027%=      5-min Rain = 0
KES1 192212Z 15014KT 40/17 A298 RMK A01 T03980173  RH  027%=      5-min Rain = 0
KES1 192213Z 14014KT 40/17 A298 RMK A01 T03970174  RH  027%=      5-min Rain = 0
KES1 192214Z 15013KT 40/18 A298 RMK A01 T03970176  RH  028%=      5-min Rain = 0
KES1 192215Z 15013KT 40/17 A298 RMK A01 T03980174  RH  027%=      5-min Rain = 0
KES1 192216Z 16014G20KT 40/18 A298 RMK A01 T03980175  RH  027%=      5-min Rain = 0
KES1 192217Z 15012KT 40/17 A298 RMK A01 T03980174  RH  027%=      5-min Rain = 0
KES1 192218Z 14013KT 40/17 A298 RMK A01 T03970174  RH  027%=      5-min Rain = 0
KES1 192219Z 14014KT 40/17 A2979 RMK A01 T03970172  RH  027%=      5-min Rain = 0
KES1 192220Z 14009KT 40/18 A2979 RMK A01 T03960175  RH  028%=      5-min Rain = 0
KES1 192221Z 14012KT 40/17 A2979 RMK A01 T03980173  RH  027%=      5-min Rain = 0
KES1 192222Z 14013KT 40/17 A2979 RMK A01 T03990172  RH  027%=      5-min Rain = 0
KES1 192223Z 14011KT 40/18 A2979 RMK A01 T03990175  RH  027%=      5-min Rain = 0
KES1 192224Z 14011KT 40/18 A2979 RMK A01 T03990176  RH  027%=      5-min Rain = 0
KES1 192225Z 16015KT 40/18 A2979 RMK A01 T04000175  RH  027%=      5-min Rain = 0
KES1 192226Z 17017G22KT 40/18 A2979 RMK A01 T03990175  RH  027%=      5-min Rain = 0
KES1 192227Z 15018KT 40/18 A2979 RMK A01 T03970175  RH  028%=      5-min Rain = 0
KES1 192228Z 16014KT 40/18 A2979 RMK A01 T03960176  RH  028%=      5-min Rain = 0
KES1 192229Z 16014KT 40/18 A2979 RMK A01 T03960176  RH  028%=      5-min Rain = 0
KES1 192230Z 16013KT 40/17 A2979 RMK A01 T03960173  RH  027%=      5-min Rain = 0
KES1 192231Z 17007KT 40/17 A2979 RMK A01 T03960174  RH  028%=      5-min Rain = 0
KES1 192232Z 17009G15KT 40/18 A2979 RMK A01 T03970176  RH  028%=      5-min Rain = 0
KES1 192233Z 17009KT 40/17 A2979 RMK A01 T03990174  RH  027%=      5-min Rain = 0
KES1 192234Z 15010KT 40/18 A2979 RMK A01 T03990175  RH  027%=      5-min Rain = 0
KES1 192235Z 13016G21KT 40/18 A2979 RMK A01 T04000176  RH  027%=      5-min Rain = 0
KES1 192236Z 14010G15KT 40/17 A2979 RMK A01 T03980172  RH  027%=      5-min Rain = 0
KES1 192237Z 14010KT 40/17 A2979 RMK A01 T03960172  RH  027%=      5-min Rain = 0
KES1 192238Z 15011KT 40/17 A2979 RMK A01 T03950173  RH  027%=      5-min Rain = 0
KES1 192239Z 15012KT 40/17 A2979 RMK A01 T03950173  RH  027%=      5-min Rain = 0
KES1 192240Z 15014KT 40/17 A2979 RMK A01 T03970171  RH  027%=      5-min Rain = 0
KES1 192241Z 16012KT 40/17 A2979 RMK A01 T03960171  RH  027%=      5-min Rain = 0
KES1 192242Z 15013KT 40/17 A2979 RMK A01 T03960172  RH  027%=      5-min Rain = 0
KES1 192243Z 16015KT 40/17 A2979 RMK A01 T03960171  RH  027%=      5-min Rain = 0
KES1 192244Z 16015KT 40/17 A2979 RMK A01 T03950168  RH  027%=      5-min Rain = 0
KES1 192245Z 17013G18KT 40/17 A2979 RMK A01 T03950171  RH  027%=      5-min Rain = 0
KES1 192246Z 15014KT 40/17 A2979 RMK A01 T03970172  RH  027%=      5-min Rain = 0
KES1 192247Z 14014KT 40/17 A2979 RMK A01 T03970170  RH  027%=      5-min Rain = 0
KES1 192248Z 15014KT 40/17 A2979 RMK A01 T03970170  RH  027%=      5-min Rain = 0
KES1 192249Z 16012KT 40/17 A2978 RMK A01 T03960170  RH  027%=      5-min Rain = 0
KES1 192250Z 16012KT 40/17 A2979 RMK A01 T03960170  RH  027%=      5-min Rain = 0
KES1 192251Z 15012KT 40/17 A2979 RMK A01 T03960171  RH  027%=      5-min Rain = 0
KES1 192252Z 16013KT 40/17 A2978 RMK A01 T03970169  RH  027%=      5-min Rain = 0
KES1 192253Z 15016KT 40/17 A2978 RMK A01 T03970171  RH  027%=      5-min Rain = 0
KES1 192254Z 17012G17KT 40/17 A2979 RMK A01 T03970171  RH  027%=      5-min Rain = 0
KES1 192255Z 16009KT 40/17 A2979 RMK A01 T03980173  RH  027%=      5-min Rain = 0
KES1 192256Z 17012G17KT 40/17 A2979 RMK A01 T04000173  RH  027%=      5-min Rain = 0
KES1 192257Z 15013KT 40/17 A2979 RMK A01 T03990173  RH  027%=      5-min Rain = 0
KES1 192258Z 15013KT 40/17 A2979 RMK A01 T03990174  RH  027%=      5-min Rain = 0
KES1 192259Z 15011KT 40/17 A2979 RMK A01 T03980172  RH  027%=      5-min Rain = 0
KES1 192300Z 16011KT 40/17 A2979 RMK A01 T03970172  RH  027%=      5-min Rain = 0
KES1 192301Z 15011G17KT 40/17 A2979 RMK A01 T03970173  RH  027%=      5-min Rain = 0
KES1 192302Z 16012KT 40/17 A2979 RMK A01 T03980171  RH  027%=      5-min Rain = 0
KES1 192303Z 16010KT 40/17 A2979 RMK A01 T03980172  RH  027%=      5-min Rain = 0
KES1 192304Z 15014G19KT 40/17 A2978 RMK A01 T03980173  RH  027%=      5-min Rain = 0
KES1 192305Z 15013KT 40/17 A2978 RMK A01 T03980172  RH  027%=      5-min Rain = 0
KES1 192306Z 15011KT 40/17 A2979 RMK A01 T03970174  RH  027%=      5-min Rain = 0
KES1 192307Z 16012KT 40/17 A2978 RMK A01 T03980171  RH  027%=      5-min Rain = 0
KES1 192308Z 15017KT 40/17 A2978 RMK A01 T03970171  RH  027%=      5-min Rain = 0
KES1 192309Z 15012KT 40/17 A2978 RMK A01 T03950169  RH  027%=      5-min Rain = 0
KES1 192310Z 15010KT 39/17 A2978 RMK A01 T03940169  RH  027%=      5-min Rain = 0
KES1 192311Z 14013G18KT 39/17 A2978 RMK A01 T03940171  RH  027%=      5-min Rain = 0
KES1 192312Z 15013KT 39/17 A2978 RMK A01 T03930170  RH  027%=      5-min Rain = 0
KES1 192313Z 16015KT 39/17 A2978 RMK A01 T03930169  RH  027%=      5-min Rain = 0
KES1 192314Z 17011KT 39/17 A2978 RMK A01 T03930170  RH  027%=      5-min Rain = 0
KES1 192315Z 16013KT 40/17 A2978 RMK A01 T03950170  RH  027%=      5-min Rain = 0
KES1 192316Z 16014KT 40/17 A2978 RMK A01 T03950169  RH  027%=      5-min Rain = 0
KES1 192317Z 16014KT 40/17 A2978 RMK A01 T03950169  RH  027%=      5-min Rain = 0
KES1 192318Z 16013KT 39/17 A2978 RMK A01 T03940168  RH  027%=      5-min Rain = 0
KES1 192319Z 15013G18KT 39/17 A2978 RMK A01 T03930170  RH  027%=      5-min Rain = 0
KES1 192320Z 15010KT 39/17 A2978 RMK A01 T03930171  RH  027%=      5-min Rain = 0
KES1 192321Z 15009KT 39/17 A2978 RMK A01 T03920171  RH  028%=      5-min Rain = 0
KES1 192322Z 15012G18KT 39/18 A2978 RMK A01 T03930175  RH  028%=      5-min Rain = 0
KES1 192323Z 16016G21KT 40/17 A2978 RMK A01 T03950174  RH  028%=      5-min Rain = 0
KES1 192324Z 15016KT 39/17 A2978 RMK A01 T03940171  RH  027%=      5-min Rain = 0
KES1 192325Z 15014G19KT 39/17 A2978 RMK A01 T03930172  RH  028%=      5-min Rain = 0
KES1 192326Z 16014KT 39/17 A2978 RMK A01 T03930172  RH  028%=      5-min Rain = 0
KES1 192327Z 16012KT 39/17 A2978 RMK A01 T03930171  RH  027%=      5-min Rain = 0
KES1 192328Z 15015KT 39/17 A2978 RMK A01 T03920171  RH  027%=      5-min Rain = 0
KES1 192329Z 16013KT 39/17 A2978 RMK A01 T03920172  RH  028%=      5-min Rain = 0
KES1 192330Z 16010KT 39/17 A2978 RMK A01 T03920172  RH  028%=      5-min Rain = 0
KES1 192331Z 14012KT 39/17 A2978 RMK A01 T03920174  RH  028%=      5-min Rain = 0
KES1 192332Z 15013KT 39/17 A2978 RMK A01 T03940173  RH  028%=      5-min Rain = 0
KES1 192333Z 16014KT 39/17 A2978 RMK A01 T03930171  RH  027%=      5-min Rain = 0
KES1 192334Z 16014G20KT 39/17 A2978 RMK A01 T03920171  RH  028%=      5-min Rain = 0
KES1 192335Z 17013KT 39/17 A2978 RMK A01 T03920171  RH  028%=      5-min Rain = 0
KES1 192336Z 15013G19KT 39/17 A2978 RMK A01 T03910172  RH  028%=      5-min Rain = 0
KES1 192337Z 16016KT 39/17 A2978 RMK A01 T03910173  RH  028%=      5-min Rain = 0
KES1 192338Z 16014KT 39/17 A2978 RMK A01 T03910172  RH  028%=      5-min Rain = 0
KES1 192339Z 16012KT 39/17 A2978 RMK A01 T03900173  RH  028%=      5-min Rain = 0
KES1 192340Z 15013G18KT 39/17 A2978 RMK A01 T03900174  RH  028%=      5-min Rain = 0
KES1 192341Z 15014KT 39/17 A2978 RMK A01 T03910173  RH  028%=      5-min Rain = 0
KES1 192342Z 17012G17KT 39/17 A2978 RMK A01 T03900173  RH  028%=      5-min Rain = 0
KES1 192343Z 17011KT 39/17 A2978 RMK A01 T03910173  RH  028%=      5-min Rain = 0
KES1 192344Z 16009KT 39/17 A2978 RMK A01 T03910174  RH  028%=      5-min Rain = 0
KES1 192345Z 16010KT 39/18 A2978 RMK A01 T03920176  RH  028%=      5-min Rain = 0
KES1 192346Z 15009KT 39/18 A2978 RMK A01 T03930178  RH  029%=      5-min Rain = 0
KES1 192347Z 15012G17KT 39/18 A2978 RMK A01 T03940179  RH  029%=      5-min Rain = 0
KES1 192348Z 15012G17KT 39/18 A2978 RMK A01 T03940175  RH  028%=      5-min Rain = 0
KES1 192349Z 15014KT 39/17 A2978 RMK A01 T03920174  RH  028%=      5-min Rain = 0
KES1 192350Z 16017KT 39/17 A2978 RMK A01 T03910172  RH  028%=      5-min Rain = 0
KES1 192351Z 17014KT 39/17 A2978 RMK A01 T03900172  RH  028%=      5-min Rain = 0
KES1 192352Z 17014KT 39/17 A2978 RMK A01 T03900172  RH  028%=      5-min Rain = 0
KES1 192353Z 16014KT 39/17 A2978 RMK A01 T03900171  RH  028%=      5-min Rain = 0
KES1 192354Z 17010KT 39/17 A2978 RMK A01 T03900172  RH  028%=      5-min Rain = 0
KES1 192355Z 17014KT 39/17 A2978 RMK A01 T03900172  RH  028%=      5-min Rain = 0
KES1 192356Z 15014G19KT 39/17 A2978 RMK A01 T03900172  RH  028%=      5-min Rain = 0
KES1 192357Z 16013KT 39/17 A2978 RMK A01 T03890171  RH  028%=      5-min Rain = 0
KES1 192358Z 16011G16KT 39/17 A2978 RMK A01 T03890171  RH  028%=      5-min Rain = 0
KES1 192359Z 16011KT 39/17 A2978 RMK A01 T03890173  RH  028%=      5-min Rain = 0
KES1 200000Z 17013KT 39/17 A2978 RMK A01 T03890173  RH  028%=      5-min Rain = 0
KES1 200001Z 16014G19KT 39/17 A2978 RMK A01 T03900171  RH  028%=      5-min Rain = 0
KES1 200002Z 16011KT 39/17 A2978 RMK A01 T03900172  RH  028%=      5-min Rain = 0
KES1 200003Z 18013KT 39/17 A2978 RMK A01 T03900171  RH  028%=      5-min Rain = 0
KES1 200004Z 18015G20KT 39/17 A2978 RMK A01 T03900170  RH  028%=      5-min Rain = 0
KES1 200005Z 17012KT 39/17 A2978 RMK A01 T03900171  RH  028%=      5-min Rain = 0
KES1 200006Z 16015G20KT 39/17 A2978 RMK A01 T03900171  RH  028%=      5-min Rain = 0
KES1 200007Z 17014KT 39/17 A2978 RMK A01 T03890169  RH  028%=      5-min Rain = 0
KES1 200008Z 16013KT 39/17 A2978 RMK A01 T03880171  RH  028%=      5-min Rain = 0
KES1 200009Z 16012G19KT 39/17 A2978 RMK A01 T03880171  RH  028%=      5-min Rain = 0
KES1 200010Z 16011G16KT 39/17 A2978 RMK A01 T03880171  RH  028%=      5-min Rain = 0
KES1 200011Z 16013G18KT 39/17 A2978 RMK A01 T03870172  RH  028%=      5-min Rain = 0
KES1 200012Z 16013G18KT 39/17 A2978 RMK A01 T03870172  RH  029%=      5-min Rain = 0
KES1 200013Z 16013KT 39/17 A2978 RMK A01 T03860173  RH  029%=      5-min Rain = 0
KES1 200014Z 16015KT 39/17 A2978 RMK A01 T03860171  RH  029%=      5-min Rain = 0
KES1 200015Z 16016KT 39/17 A2978 RMK A01 T03850170  RH  028%=      5-min Rain = 0
KES1 200016Z 16014KT 39/17 A2978 RMK A01 T03850170  RH  028%=      5-min Rain = 0
KES1 200017Z 15013KT 39/17 A2978 RMK A01 T03850170  RH  028%=      5-min Rain = 0
KES1 200018Z 16014KT 38/17 A2978 RMK A01 T03840170  RH  029%=      5-min Rain = 0
KES1 200019Z 16015KT 38/17 A2978 RMK A01 T03840170  RH  029%=      5-min Rain = 0
KES1 200020Z 16012G18KT 39/17 A2978 RMK A01 T03850170  RH  028%=      5-min Rain = 0
KES1 200021Z 16009KT 38/17 A2978 RMK A01 T03840171  RH  029%=      5-min Rain = 0
KES1 200022Z 16014KT 38/17 A2978 RMK A01 T03840172  RH  029%=      5-min Rain = 0
KES1 200023Z 15014KT 39/17 A2978 RMK A01 T03850171  RH  029%=      5-min Rain = 0
KES1 200024Z 15014G19KT 38/17 A2978 RMK A01 T03840172  RH  029%=      5-min Rain = 0
KES1 200025Z 16014KT 38/17 A2978 RMK A01 T03830172  RH  029%=      5-min Rain = 0
KES1 200026Z 15011KT 38/17 A2978 RMK A01 T03830173  RH  029%=      5-min Rain = 0
KES1 200027Z 15016KT 38/17 A2978 RMK A01 T03820173  RH  029%=      5-min Rain = 0
KES1 200028Z 15017G22KT 38/17 A2978 RMK A01 T03820173  RH  029%=      5-min Rain = 0
KES1 200029Z 16012KT 38/17 A2978 RMK A01 T03820174  RH  030%=      5-min Rain = 0
KES1 200030Z 16017G24KT 38/17 A2978 RMK A01 T03820173  RH  030%=      5-min Rain = 0
KES1 200031Z 15017G22KT 38/17 A2978 RMK A01 T03810173  RH  029%=      5-min Rain = 0
KES1 200032Z 15016KT 38/17 A2978 RMK A01 T03810174  RH  030%=      5-min Rain = 0
KES1 200033Z 15014KT 38/17 A2978 RMK A01 T03810174  RH  030%=      5-min Rain = 0
KES1 200034Z 15015G20KT 38/17 A2978 RMK A01 T03800174  RH  030%=      5-min Rain = 0
KES1 200035Z 15017KT 38/17 A2978 RMK A01 T03800173  RH  030%=      5-min Rain = 0
KES1 200036Z 15012G17KT 38/18 A2978 RMK A01 T03800175  RH  030%=      5-min Rain = 0
KES1 200037Z 15012G17KT 38/18 A2978 RMK A01 T03800175  RH  030%=      5-min Rain = 0
KES1 200038Z 14010KT 38/18 A2978 RMK A01 T03800176  RH  030%=      5-min Rain = 0
KES1 200039Z 14014KT 38/18 A2978 RMK A01 T03800176  RH  030%=      5-min Rain = 0
KES1 200040Z 15014G21KT 38/18 A2978 RMK A01 T03800175  RH  030%=      5-min Rain = 0
KES1 200041Z 15012KT 38/18 A2979 RMK A01 T03800176  RH  030%=      5-min Rain = 0
KES1 200042Z 15014KT 38/18 A2979 RMK A01 T03800176  RH  030%=      5-min Rain = 0
KES1 200043Z 16015G24KT 38/18 A2979 RMK A01 T03790175  RH  030%=      5-min Rain = 0
KES1 200044Z 16018KT 38/17 A2978 RMK A01 T03790174  RH  030%=      5-min Rain = 0
KES1 200045Z 16013KT 38/17 A2978 RMK A01 T03780174  RH  030%=      5-min Rain = 0
KES1 200046Z 15010KT 38/18 A2979 RMK A01 T03780176  RH  031%=      5-min Rain = 0
KES1 200047Z 15011G16KT 38/18 A2979 RMK A01 T03780176  RH  031%=      5-min Rain = 0
KES1 200048Z 16012G17KT 38/18 A2979 RMK A01 T03780176  RH  031%=      5-min Rain = 0
KES1 200049Z 15011KT 38/18 A2979 RMK A01 T03780177  RH  031%=      5-min Rain = 0
KES1 200050Z 15012KT 38/18 A2979 RMK A01 T03770177  RH  031%=      5-min Rain = 0
KES1 200051Z 17013KT 38/18 A2979 RMK A01 T03770176  RH  031%=      5-min Rain = 0
KES1 200052Z 16016KT 38/18 A2979 RMK A01 T03770176  RH  031%=      5-min Rain = 0
KES1 200053Z 16013KT 38/18 A2979 RMK A01 T03770176  RH  031%=      5-min Rain = 0
KES1 200054Z 17016G21KT 38/18 A2979 RMK A01 T03760175  RH  031%=      5-min Rain = 0
KES1 200055Z 17013KT 38/18 A2979 RMK A01 T03770177  RH  031%=      5-min Rain = 0
KES1 200056Z 16013KT 38/18 A2979 RMK A01 T03770178  RH  031%=      5-min Rain = 0
KES1 200057Z 15013KT 38/18 A2979 RMK A01 T03760178  RH  031%=      5-min Rain = 0
KES1 200058Z 16010G15KT 38/18 A2979 RMK A01 T03750179  RH  032%=      5-min Rain = 0
KES1 200059Z 16012KT 37/18 A2979 RMK A01 T03740180  RH  032%=      5-min Rain = 0
KES1 200100Z 16012KT 37/18 A2979 RMK A01 T03740179  RH  032%=      5-min Rain = 0
KES1 200101Z 15013KT 37/18 A2979 RMK A01 T03730179  RH  032%=      5-min Rain = 0
KES1 200102Z 16013G18KT 37/18 A2979 RMK A01 T03730179  RH  032%=      5-min Rain = 0
KES1 200103Z 16012KT 37/18 A2979 RMK A01 T03720179  RH  032%=      5-min Rain = 0
KES1 200104Z 15011G16KT 37/18 A2979 RMK A01 T03720180  RH  032%=      5-min Rain = 0
KES1 200105Z 15012KT 37/18 A2979 RMK A01 T03720180  RH  032%=      5-min Rain = 0
KES1 200106Z 15013KT 37/18 A2979 RMK A01 T03710180  RH  033%=      5-min Rain = 0
KES1 200107Z 15012KT 37/18 A2979 RMK A01 T03710180  RH  033%=      5-min Rain = 0
KES1 200108Z 15012G17KT 37/18 A2979 RMK A01 T03700180  RH  033%=      5-min Rain = 0
KES1 200109Z 15010KT 37/18 A2979 RMK A01 T03700180  RH  033%=      5-min Rain = 0
KES1 200110Z 15010KT 37/18 A2979 RMK A01 T03690181  RH  033%=      5-min Rain = 0
KES1 200111Z 15013KT 37/18 A2979 RMK A01 T03680180  RH  033%=      5-min Rain = 0
KES1 200112Z 15011KT 37/18 A2979 RMK A01 T03680180  RH  033%=      5-min Rain = 0
KES1 200113Z 14011KT 37/18 A2979 RMK A01 T03680181  RH  033%=      5-min Rain = 0
KES1 200114Z 15011KT 37/18 A2979 RMK A01 T03680181  RH  033%=      5-min Rain = 0
KES1 200115Z 16012KT 37/18 A2979 RMK A01 T03670180  RH  033%=      5-min Rain = 0
KES1 200116Z 15012G17KT 37/18 A2979 RMK A01 T03670180  RH  033%=      5-min Rain = 0
KES1 200117Z 16009G14KT 37/18 A2979 RMK A01 T03670180  RH  033%=      5-min Rain = 0
KES1 200118Z 15012KT 37/18 A2979 RMK A01 T03670180  RH  034%=      5-min Rain = 0
KES1 200119Z 16012G17KT 37/18 A2979 RMK A01 T03660180  RH  034%=      5-min Rain = 0
KES1 200120Z 16012KT 37/18 A2979 RMK A01 T03660180  RH  034%=      5-min Rain = 0
KES1 200121Z 15012G17KT 37/18 A298 RMK A01 T03660180  RH  034%=      5-min Rain = 0
KES1 200122Z 15012KT 37/18 A298 RMK A01 T03660180  RH  034%=      5-min Rain = 0
KES1 200123Z 15012KT 37/18 A298 RMK A01 T03650180  RH  034%=      5-min Rain = 0
KES1 200124Z 15010KT 37/18 A298 RMK A01 T03650180  RH  034%=      5-min Rain = 0
KES1 200125Z 15011KT 36/18 A298 RMK A01 T03640180  RH  034%=      5-min Rain = 0
KES1 200126Z 15010KT 36/18 A298 RMK A01 T03630180  RH  034%=      5-min Rain = 0
KES1 200127Z 15011KT 36/18 A298 RMK A01 T03620181  RH  034%=      5-min Rain = 0
KES1 200128Z 15012KT 36/18 A298 RMK A01 T03620180  RH  034%=      5-min Rain = 0
KES1 200129Z 15011KT 36/18 A298 RMK A01 T03610180  RH  034%=      5-min Rain = 0
KES1 200130Z 15010KT 36/18 A298 RMK A01 T03610180  RH  035%=      5-min Rain = 0
KES1 200131Z 16009KT 36/18 A298 RMK A01 T03600180  RH  035%=      5-min Rain = 0
KES1 200132Z 15009KT 36/18 A298 RMK A01 T03590180  RH  035%=      5-min Rain = 0
KES1 200133Z 15011KT 36/18 A298 RMK A01 T03590180  RH  035%=      5-min Rain = 0
KES1 200134Z 15010KT 36/18 A298 RMK A01 T03580180  RH  035%=      5-min Rain = 0
KES1 200135Z 15010KT 36/18 A298 RMK A01 T03580180  RH  035%=      5-min Rain = 0
KES1 200136Z 15010KT 36/18 A298 RMK A01 T03580180  RH  035%=      5-min Rain = 0
KES1 200137Z 15010KT 36/18 A298 RMK A01 T03570180  RH  035%=      5-min Rain = 0
KES1 200138Z 15010KT 36/18 A298 RMK A01 T03570180  RH  035%=      5-min Rain = 0
KES1 200139Z 16008KT 36/18 A298 RMK A01 T03560180  RH  035%=      5-min Rain = 0
KES1 200140Z 15011G16KT 36/18 A298 RMK A01 T03560180  RH  035%=      5-min Rain = 0
KES1 200141Z 15010KT 36/18 A298 RMK A01 T03560180  RH  035%=      5-min Rain = 0
KES1 200142Z 16010KT 36/18 A298 RMK A01 T03560180  RH  035%=      5-min Rain = 0
KES1 200143Z 16009KT 36/18 A298 RMK A01 T03550180  RH  036%=      5-min Rain = 0
KES1 200144Z 15009G15KT 35/18 A298 RMK A01 T03540180  RH  036%=      5-min Rain = 0
KES1 200145Z 15008KT 35/18 A298 RMK A01 T03540180  RH  036%=      5-min Rain = 0
KES1 200146Z 16008KT 35/18 A298 RMK A01 T03540181  RH  036%=      5-min Rain = 0
KES1 200147Z 16010KT 35/18 A298 RMK A01 T03530180  RH  036%=      5-min Rain = 0
KES1 200148Z 15012KT 35/18 A298 RMK A01 T03530180  RH  036%=      5-min Rain = 0
KES1 200149Z 15011G16KT 35/18 A298 RMK A01 T03530180  RH  036%=      5-min Rain = 0
KES1 200150Z 16011G16KT 35/18 A298 RMK A01 T03530179  RH  036%=      5-min Rain = 0
KES1 200151Z 15011KT 35/18 A298 RMK A01 T03540180  RH  036%=      5-min Rain = 0
KES1 200152Z 16013KT 35/18 A298 RMK A01 T03540179  RH  036%=      5-min Rain = 0
KES1 200153Z 15009KT 35/18 A298 RMK A01 T03540179  RH  036%=      5-min Rain = 0
KES1 200154Z 15012KT 35/18 A298 RMK A01 T03540179  RH  036%=      5-min Rain = 0
KES1 200155Z 16010KT 35/18 A298 RMK A01 T03540179  RH  036%=      5-min Rain = 0
KES1 200156Z 15009KT 35/18 A298 RMK A01 T03530179  RH  036%=      5-min Rain = 0
KES1 200157Z 15010KT 35/18 A298 RMK A01 T03520179  RH  036%=      5-min Rain = 0
KES1 200158Z 15010KT 35/18 A298 RMK A01 T03520179  RH  036%=      5-min Rain = 0
KES1 200159Z 15011KT 35/18 A298 RMK A01 T03510179  RH  036%=      5-min Rain = 0
KES1 200200Z 16013KT 35/18 A298 RMK A01 T03510179  RH  036%=      5-min Rain = 0
KES1 200201Z 16010KT 35/18 A298 RMK A01 T03510179  RH  036%=      5-min Rain = 0
KES1 200202Z 15011G16KT 35/18 A298 RMK A01 T03510179  RH  036%=      5-min Rain = 0
KES1 200203Z 16012KT 35/18 A298 RMK A01 T03510179  RH  036%=      5-min Rain = 0
KES1 200204Z 16010KT 35/18 A298 RMK A01 T03510179  RH  036%=      5-min Rain = 0
KES1 200205Z 16009KT 35/18 A298 RMK A01 T03500179  RH  036%=      5-min Rain = 0
KES1 200206Z 15009KT 35/18 A2981 RMK A01 T03490179  RH  036%=      5-min Rain = 0
KES1 200207Z 16011KT 35/18 A2981 RMK A01 T03490179  RH  037%=      5-min Rain = 0
KES1 200208Z 15012KT 35/18 A2981 RMK A01 T03480178  RH  037%=      5-min Rain = 0
KES1 200209Z 16010KT 35/18 A2981 RMK A01 T03490178  RH  036%=      5-min Rain = 0
KES1 200210Z 15009KT 35/18 A2981 RMK A01 T03490178  RH  036%=      5-min Rain = 0
KES1 200211Z 16009KT 35/18 A2981 RMK A01 T03480178  RH  037%=      5-min Rain = 0
KES1 200212Z 15009KT 35/18 A2981 RMK A01 T03480178  RH  037%=      5-min Rain = 0
KES1 200213Z 16012KT 35/18 A2981 RMK A01 T03470178  RH  037%=      5-min Rain = 0
KES1 200214Z 16008G13KT 35/18 A2981 RMK A01 T03470178  RH  037%=      5-min Rain = 0
KES1 200215Z 15010KT 35/18 A2981 RMK A01 T03470178  RH  037%=      5-min Rain = 0
KES1 200216Z 15009KT 35/18 A2981 RMK A01 T03460178  RH  037%=      5-min Rain = 0
KES1 200217Z 15008KT 35/18 A2981 RMK A01 T03450178  RH  037%=      5-min Rain = 0
KES1 200218Z 15009KT 34/18 A2981 RMK A01 T03440178  RH  037%=      5-min Rain = 0
KES1 200219Z 15009KT 34/18 A2981 RMK A01 T03440178  RH  037%=      5-min Rain = 0
KES1 200220Z 15009KT 34/18 A2981 RMK A01 T03440178  RH  037%=      5-min Rain = 0
KES1 200221Z 15009KT 34/18 A2981 RMK A01 T03430178  RH  038%=      5-min Rain = 0
KES1 200222Z 15009KT 34/18 A2981 RMK A01 T03420178  RH  038%=      5-min Rain = 0
KES1 200223Z 15009KT 34/18 A2981 RMK A01 T03420178  RH  038%=      5-min Rain = 0
KES1 200224Z 15010KT 34/18 A2981 RMK A01 T03420178  RH  038%=      5-min Rain = 0
KES1 200225Z 16008KT 34/18 A2981 RMK A01 T03420178  RH  038%=      5-min Rain = 0
KES1 200226Z 15009KT 34/18 A2981 RMK A01 T03420178  RH  038%=      5-min Rain = 0
KES1 200227Z 15007KT 34/18 A2981 RMK A01 T03410178  RH  038%=      5-min Rain = 0
KES1 200228Z 15008KT 34/18 A2981 RMK A01 T03410177  RH  038%=      5-min Rain = 0
KES1 200229Z 15009KT 34/18 A2981 RMK A01 T03410177  RH  038%=      5-min Rain = 0
KES1 200230Z 15009KT 34/18 A2981 RMK A01 T03400177  RH  038%=      5-min Rain = 0
KES1 200231Z 15011KT 34/18 A2981 RMK A01 T03390177  RH  038%=      5-min Rain = 0
KES1 200232Z 15009KT 34/18 A2981 RMK A01 T03400176  RH  038%=      5-min Rain = 0
KES1 200233Z 15009KT 34/18 A2981 RMK A01 T03400177  RH  038%=      5-min Rain = 0
KES1 200234Z 15009KT 34/18 A2981 RMK A01 T03400177  RH  038%=      5-min Rain = 0
KES1 200235Z 15008KT 34/18 A2981 RMK A01 T03390177  RH  038%=      5-min Rain = 0
KES1 200236Z 16009KT 34/18 A2981 RMK A01 T03380177  RH  038%=      5-min Rain = 0
KES1 200237Z 15009KT 34/18 A2982 RMK A01 T03380177  RH  038%=      5-min Rain = 0
KES1 200238Z 15007KT 34/18 A2982 RMK A01 T03380177  RH  038%=      5-min Rain = 0
KES1 200239Z 15007KT 34/18 A2982 RMK A01 T03380177  RH  038%=      5-min Rain = 0
KES1 200240Z 15008KT 34/18 A2982 RMK A01 T03370176  RH  039%=      5-min Rain = 0
KES1 200241Z 14008KT 34/18 A2982 RMK A01 T03360176  RH  039%=      5-min Rain = 0
KES1 200242Z 15009KT 34/18 A2982 RMK A01 T03360176  RH  039%=      5-min Rain = 0
KES1 200243Z 15010KT 34/18 A2982 RMK A01 T03360176  RH  039%=      5-min Rain = 0
KES1 200244Z 15009KT 34/18 A2982 RMK A01 T03360175  RH  038%=      5-min Rain = 0
KES1 200245Z 15008KT 34/18 A2982 RMK A01 T03360175  RH  039%=      5-min Rain = 0
KES1 200246Z 15009KT 34/18 A2982 RMK A01 T03350175  RH  039%=      5-min Rain = 0
KES1 200247Z 15009KT 34/18 A2982 RMK A01 T03350175  RH  039%=      5-min Rain = 0
KES1 200248Z 16009KT 34/18 A2982 RMK A01 T03350175  RH  039%=      5-min Rain = 0
KES1 200249Z 15009KT 33/17 A2982 RMK A01 T03340174  RH  039%=      5-min Rain = 0
KES1 200250Z 15010KT 34/17 A2982 RMK A01 T03350174  RH  039%=      5-min Rain = 0
KES1 200251Z 15011KT 33/17 A2982 RMK A01 T03340174  RH  038%=      5-min Rain = 0
KES1 200252Z 15009KT 33/17 A2982 RMK A01 T03340173  RH  038%=      5-min Rain = 0
KES1 200253Z 15010KT 34/17 A2982 RMK A01 T03350174  RH  038%=      5-min Rain = 0
KES1 200254Z 15012KT 34/17 A2982 RMK A01 T03350173  RH  038%=      5-min Rain = 0
KES1 200255Z 15010KT 34/17 A2982 RMK A01 T03350173  RH  038%=      5-min Rain = 0
KES1 200256Z 15010KT 34/17 A2982 RMK A01 T03350173  RH  038%=      5-min Rain = 0
KES1 200257Z 15011KT 33/17 A2982 RMK A01 T03340173  RH  038%=      5-min Rain = 0
KES1 200258Z 15012KT 34/17 A2982 RMK A01 T03350173  RH  038%=      5-min Rain = 0
KES1 200259Z 15011KT 33/17 A2982 RMK A01 T03340173  RH  038%=      5-min Rain = 0
KES1 200300Z 15008KT 33/17 A2982 RMK A01 T03340173  RH  038%=      5-min Rain = 0
KES1 200301Z 15010KT 33/17 A2982 RMK A01 T03340173  RH  038%=      5-min Rain = 0
KES1 200302Z 14010KT 33/17 A2982 RMK A01 T03330173  RH  039%=      5-min Rain = 0
KES1 200303Z 15009KT 33/17 A2982 RMK A01 T03330173  RH  039%=      5-min Rain = 0
KES1 200304Z 14010KT 33/17 A2982 RMK A01 T03320173  RH  039%=      5-min Rain = 0
KES1 200305Z 14012KT 33/17 A2982 RMK A01 T03310173  RH  039%=      5-min Rain = 0
KES1 200306Z 15011KT 33/17 A2982 RMK A01 T03310173  RH  039%=      5-min Rain = 0
KES1 200307Z 15011KT 33/17 A2983 RMK A01 T03310173  RH  039%=      5-min Rain = 0
KES1 200308Z 15011KT 33/17 A2983 RMK A01 T03310174  RH  039%=      5-min Rain = 0
KES1 200309Z 15015KT 33/17 A2983 RMK A01 T03310173  RH  039%=      5-min Rain = 0
KES1 200310Z 15014KT 33/17 A2983 RMK A01 T03300173  RH  039%=      5-min Rain = 0
KES1 200311Z 15012KT 33/17 A2983 RMK A01 T03310174  RH  039%=      5-min Rain = 0
KES1 200312Z 15011KT 33/17 A2983 RMK A01 T03310173  RH  039%=      5-min Rain = 0
KES1 200313Z 16012KT 33/17 A2983 RMK A01 T03310173  RH  039%=      5-min Rain = 0
KES1 200314Z 15012KT 33/17 A2983 RMK A01 T03300173  RH  039%=      5-min Rain = 0
KES1 200315Z 15012KT 33/17 A2983 RMK A01 T03310173  RH  039%=      5-min Rain = 0
KES1 200316Z 16014KT 33/17 A2983 RMK A01 T03300173  RH  039%=      5-min Rain = 0
KES1 200317Z 16013KT 33/17 A2983 RMK A01 T03310173  RH  039%=      5-min Rain = 0
KES1 200318Z 15013KT 33/17 A2983 RMK A01 T03310173  RH  039%=      5-min Rain = 0
KES1 200319Z 15013KT 33/17 A2983 RMK A01 T03310172  RH  039%=      5-min Rain = 0
KES1 200320Z 15013KT 33/17 A2983 RMK A01 T03310172  RH  039%=      5-min Rain = 0
KES1 200321Z 16011KT 33/17 A2983 RMK A01 T03310172  RH  039%=      5-min Rain = 0
KES1 200322Z 15012KT 33/17 A2983 RMK A01 T03310172  RH  039%=      5-min Rain = 0
KES1 200323Z 15014KT 33/17 A2983 RMK A01 T03310172  RH  039%=      5-min Rain = 0
KES1 200324Z 15013KT 33/17 A2983 RMK A01 T03300172  RH  039%=      5-min Rain = 0
KES1 200325Z 15011KT 33/17 A2983 RMK A01 T03300172  RH  039%=      5-min Rain = 0
KES1 200326Z 15013KT 33/17 A2983 RMK A01 T03300171  RH  039%=      5-min Rain = 0
KES1 200327Z 16012KT 33/17 A2983 RMK A01 T03300171  RH  039%=      5-min Rain = 0
KES1 200328Z 16013KT 33/17 A2983 RMK A01 T03300170  RH  039%=      5-min Rain = 0
KES1 200329Z 16012KT 33/17 A2983 RMK A01 T03300170  RH  039%=      5-min Rain = 0
KES1 200330Z 16011KT 33/17 A2983 RMK A01 T03300170  RH  038%=      5-min Rain = 0
KES1 200331Z 16011KT 33/17 A2983 RMK A01 T03300169  RH  038%=      5-min Rain = 0
KES1 200332Z 15012KT 33/17 A2983 RMK A01 T03290169  RH  038%=      5-min Rain = 0
KES1 200333Z 16013G18KT 33/17 A2983 RMK A01 T03290169  RH  038%=      5-min Rain = 0
KES1 200334Z 16014KT 33/17 A2983 RMK A01 T03290168  RH  038%=      5-min Rain = 0
KES1 200335Z 16011KT 33/17 A2983 RMK A01 T03300167  RH  038%=      5-min Rain = 0
KES1 200336Z 16012KT 33/17 A2983 RMK A01 T03300167  RH  038%=      5-min Rain = 0
KES1 200337Z 16013KT 33/17 A2983 RMK A01 T03300167  RH  038%=      5-min Rain = 0
KES1 200338Z 16012KT 33/17 A2983 RMK A01 T03290166  RH  038%=      5-min Rain = 0
KES1 200339Z 16016G21KT 33/17 A2984 RMK A01 T03290166  RH  038%=      5-min Rain = 0
KES1 200340Z 15015KT 33/17 A2984 RMK A01 T03300165  RH  037%=      5-min Rain = 0
KES1 200341Z 15012KT 33/17 A2984 RMK A01 T03310165  RH  037%=      5-min Rain = 0
KES1 200342Z 15012KT 33/17 A2984 RMK A01 T03310165  RH  037%=      5-min Rain = 0
KES1 200343Z 15012KT 33/17 A2984 RMK A01 T03300165  RH  037%=      5-min Rain = 0
KES1 200344Z 15011KT 33/16 A2984 RMK A01 T03300164  RH  037%=      5-min Rain = 0
KES1 200345Z 16011KT 33/16 A2984 RMK A01 T03290164  RH  037%=      5-min Rain = 0
KES1 200346Z 15014G19KT 33/16 A2984 RMK A01 T03280164  RH  037%=      5-min Rain = 0
KES1 200347Z 16013G18KT 33/16 A2984 RMK A01 T03280163  RH  037%=      5-min Rain = 0
KES1 200348Z 16012KT 33/16 A2984 RMK A01 T03280163  RH  037%=      5-min Rain = 0
KES1 200349Z 15009KT 33/16 A2984 RMK A01 T03280163  RH  037%=      5-min Rain = 0
KES1 200350Z 16012KT 33/16 A2984 RMK A01 T03270163  RH  037%=      5-min Rain = 0
KES1 200351Z 16010KT 33/16 A2984 RMK A01 T03270163  RH  037%=      5-min Rain = 0
KES1 200352Z 15013KT 33/16 A2984 RMK A01 T03260163  RH  038%=      5-min Rain = 0
KES1 200353Z 15013KT 33/16 A2984 RMK A01 T03260163  RH  038%=      5-min Rain = 0
KES1 200354Z 16011KT 33/16 A2984 RMK A01 T03260164  RH  038%=      5-min Rain = 0
KES1 200355Z 15010KT 33/16 A2984 RMK A01 T03250164  RH  038%=      5-min Rain = 0
KES1 200356Z 15012KT 32/16 A2984 RMK A01 T03240163  RH  038%=      5-min Rain = 0
KES1 200357Z 15013KT 32/16 A2984 RMK A01 T03240163  RH  038%=      5-min Rain = 0
KES1 200358Z 15010KT 32/16 A2984 RMK A01 T03240163  RH  038%=      5-min Rain = 0
KES1 200359Z 15012KT 32/16 A2984 RMK A01 T03230163  RH  038%=      5-min Rain = 0
KES1 200400Z 15010KT 32/16 A2984 RMK A01 T03230163  RH  038%=      5-min Rain = 0
KES1 200401Z 15010KT 32/16 A2984 RMK A01 T03220163  RH  038%=      5-min Rain = 0
KES1 200402Z 15009KT 32/16 A2984 RMK A01 T03210163  RH  039%=      5-min Rain = 0
KES1 200403Z 15012KT 32/16 A2984 RMK A01 T03210163  RH  039%=      5-min Rain = 0
KES1 200404Z 15012KT 32/16 A2984 RMK A01 T03210162  RH  039%=      5-min Rain = 0
KES1 200405Z 15013KT 32/16 A2984 RMK A01 T03210162  RH  038%=      5-min Rain = 0
KES1 200406Z 15011KT 32/16 A2984 RMK A01 T03210162  RH  038%=      5-min Rain = 0
KES1 200407Z 15012KT 32/16 A2984 RMK A01 T03210162  RH  039%=      5-min Rain = 0
KES1 200408Z 15010KT 32/16 A2984 RMK A01 T03210163  RH  039%=      5-min Rain = 0
KES1 200409Z 16011KT 32/16 A2984 RMK A01 T03190162  RH  039%=      5-min Rain = 0
KES1 200410Z 15011KT 32/16 A2984 RMK A01 T03190162  RH  039%=      5-min Rain = 0
KES1 200411Z 15010KT 32/16 A2984 RMK A01 T03190163  RH  039%=      5-min Rain = 0
KES1 200412Z 15009KT 32/16 A2984 RMK A01 T03180163  RH  039%=      5-min Rain = 0
KES1 200413Z 16011KT 32/16 A2984 RMK A01 T03170163  RH  039%=      5-min Rain = 0
KES1 200414Z 15010KT 32/16 A2984 RMK A01 T03170163  RH  040%=      5-min Rain = 0
KES1 200415Z 15011KT 32/16 A2984 RMK A01 T03170163  RH  040%=      5-min Rain = 0
KES1 200416Z 15011KT 32/16 A2984 RMK A01 T03170163  RH  040%=      5-min Rain = 0
KES1 200417Z 15011KT 32/16 A2984 RMK A01 T03160163  RH  040%=      5-min Rain = 0
KES1 200418Z 15011KT 32/16 A2984 RMK A01 T03160163  RH  040%=      5-min Rain = 0
KES1 200419Z 15012KT 32/16 A2984 RMK A01 T03150163  RH  040%=      5-min Rain = 0
KES1 200420Z 15012KT 32/16 A2984 RMK A01 T03150163  RH  040%=      5-min Rain = 0
KES1 200421Z 15010KT 32/16 A2984 RMK A01 T03150163  RH  040%=      5-min Rain = 0
KES1 200422Z 15012KT 31/16 A2984 RMK A01 T03140163  RH  040%=      5-min Rain = 0
KES1 200423Z 15011KT 31/16 A2985 RMK A01 T03140163  RH  040%=      5-min Rain = 0
KES1 200424Z 15013KT 31/16 A2984 RMK A01 T03140163  RH  040%=      5-min Rain = 0
KES1 200425Z 16013KT 31/16 A2984 RMK A01 T03140163  RH  040%=      5-min Rain = 0
KES1 200426Z 15012KT 31/16 A2984 RMK A01 T03140163  RH  040%=      5-min Rain = 0
KES1 200427Z 15010KT 31/16 A2984 RMK A01 T03140163  RH  040%=      5-min Rain = 0
KES1 200428Z 16010KT 31/16 A2985 RMK A01 T03130164  RH  041%=      5-min Rain = 0
KES1 200429Z 16011KT 31/16 A2985 RMK A01 T03120163  RH  041%=      5-min Rain = 0
KES1 200430Z 16012KT 31/16 A2984 RMK A01 T03120163  RH  041%=      5-min Rain = 0
KES1 200431Z 16013KT 31/16 A2984 RMK A01 T03120163  RH  041%=      5-min Rain = 0
KES1 200432Z 15010KT 31/16 A2985 RMK A01 T03120163  RH  041%=      5-min Rain = 0
KES1 200433Z 16011KT 31/16 A2985 RMK A01 T03120163  RH  041%=      5-min Rain = 0
KES1 200434Z 16011G17KT 31/16 A2985 RMK A01 T03110163  RH  041%=      5-min Rain = 0
KES1 200435Z 16011G18KT 31/16 A2985 RMK A01 T03110163  RH  041%=      5-min Rain = 0
KES1 200436Z 16012KT 31/16 A2985 RMK A01 T03110163  RH  041%=      5-min Rain = 0
KES1 200437Z 16010KT 31/16 A2985 RMK A01 T03110163  RH  041%=      5-min Rain = 0
KES1 200438Z 16011KT 31/16 A2985 RMK A01 T03110163  RH  041%=      5-min Rain = 0
KES1 200439Z 16012KT 31/16 A2985 RMK A01 T03100162  RH  041%=      5-min Rain = 0
KES1 200440Z 16010KT 31/16 A2985 RMK A01 T03100162  RH  041%=      5-min Rain = 0
KES1 200441Z 16011KT 31/16 A2985 RMK A01 T03100162  RH  041%=      5-min Rain = 0
KES1 200442Z 16012KT 31/16 A2985 RMK A01 T03100162  RH  041%=      5-min Rain = 0
KES1 200443Z 16012KT 31/16 A2985 RMK A01 T03100162  RH  041%=      5-min Rain = 0
KES1 200444Z 16010KT 31/16 A2985 RMK A01 T03100162  RH  041%=      5-min Rain = 0
KES1 200445Z 16010KT 31/16 A2985 RMK A01 T03100162  RH  041%=      5-min Rain = 0
KES1 200446Z 16011KT 31/16 A2985 RMK A01 T03090162  RH  041%=      5-min Rain = 0
KES1 200447Z 16012KT 31/16 A2985 RMK A01 T03090162  RH  041%=      5-min Rain = 0
KES1 200448Z 16013KT 31/16 A2985 RMK A01 T03080162  RH  041%=      5-min Rain = 0
KES1 200449Z 16010KT 31/16 A2985 RMK A01 T03080162  RH  041%=      5-min Rain = 0
KES1 200450Z 16012KT 31/16 A2985 RMK A01 T03080162  RH  041%=      5-min Rain = 0
KES1 200451Z 16011KT 31/16 A2985 RMK A01 T03080162  RH  041%=      5-min Rain = 0
KES1 200452Z 16012KT 31/16 A2985 RMK A01 T03090162  RH  041%=      5-min Rain = 0
KES1 200453Z 16011KT 31/16 A2985 RMK A01 T03090162  RH  041%=      5-min Rain = 0
KES1 200454Z 16012KT 31/16 A2985 RMK A01 T03080161  RH  041%=      5-min Rain = 0
KES1 200455Z 16012KT 31/16 A2985 RMK A01 T03080161  RH  041%=      5-min Rain = 0
KES1 200456Z 16014KT 31/16 A2985 RMK A01 T03080161  RH  041%=      5-min Rain = 0
KES1 200457Z 16010KT 31/16 A2985 RMK A01 T03090161  RH  041%=      5-min Rain = 0
KES1 200458Z 16011KT 31/16 A2985 RMK A01 T03080161  RH  041%=      5-min Rain = 0
KES1 200459Z 16011KT 31/16 A2985 RMK A01 T03070161  RH  041%=      5-min Rain = 0

Page generated in 0.129 seconds.